Observation data for Wall on 11/11/2019      Previous  Date       Current Mesonet Observations  Soil Data  Daily Summary Page  Observations in Plain Language
KWA1 110600Z 23013KT 16/14 A2994 RMK A01 T01620138  RH  086%=      5-min Rain = 0
KWA1 110601Z 23013KT 16/14 A2994 RMK A01 T01630139  RH  085%=      5-min Rain = 0
KWA1 110602Z 22013KT 16/14 A2994 RMK A01 T01630138  RH  085%=      5-min Rain = 0
KWA1 110603Z 23011KT 16/14 A2994 RMK A01 T01640138  RH  085%=      5-min Rain = 0
KWA1 110604Z 22010KT 16/14 A2994 RMK A01 T01640139  RH  085%=      5-min Rain = 0
KWA1 110605Z 22011KT 16/14 A2994 RMK A01 T01630139  RH  085%=      5-min Rain = 0
KWA1 110606Z 22010KT 16/14 A2994 RMK A01 T01630139  RH  085%=      5-min Rain = 0
KWA1 110607Z 22010KT 16/14 A2994 RMK A01 T01630138  RH  086%=      5-min Rain = 0
KWA1 110608Z 22009KT 16/14 A2994 RMK A01 T01630139  RH  086%=      5-min Rain = 0
KWA1 110609Z 22010KT 16/14 A2994 RMK A01 T01630139  RH  086%=      5-min Rain = 0
KWA1 110610Z 22009KT 16/14 A2994 RMK A01 T01630139  RH  086%=      5-min Rain = 0
KWA1 110611Z 23008KT 16/14 A2994 RMK A01 T01630139  RH  086%=      5-min Rain = 0
KWA1 110612Z 23011KT 16/14 A2994 RMK A01 T01630139  RH  086%=      5-min Rain = 0
KWA1 110613Z 22011KT 16/14 A2994 RMK A01 T01620139  RH  086%=      5-min Rain = 0
KWA1 110614Z 23009KT 16/14 A2994 RMK A01 T01630139  RH  086%=      5-min Rain = 0
KWA1 110615Z 22011G16KT 16/14 A2993 RMK A01 T01630139  RH  086%=      5-min Rain = 0
KWA1 110616Z 22014KT 16/14 A2993 RMK A01 T01630139  RH  086%=      5-min Rain = 0
KWA1 110617Z 22010KT 16/14 A2993 RMK A01 T01640139  RH  086%=      5-min Rain = 0
KWA1 110618Z 22011KT 16/14 A2993 RMK A01 T01630139  RH  085%=      5-min Rain = 0
KWA1 110619Z 22012KT 16/14 A2993 RMK A01 T01630139  RH  085%=      5-min Rain = 0
KWA1 110620Z 22014KT 16/14 A2993 RMK A01 T01630139  RH  086%=      5-min Rain = 0
KWA1 110621Z 22012KT 16/14 A2993 RMK A01 T01640139  RH  085%=      5-min Rain = 0
KWA1 110622Z 22012G17KT 16/14 A2993 RMK A01 T01640139  RH  085%=      5-min Rain = 0
KWA1 110623Z 22014KT 16/14 A2993 RMK A01 T01640139  RH  085%=      5-min Rain = 0
KWA1 110624Z 23013KT 16/14 A2993 RMK A01 T01630139  RH  085%=      5-min Rain = 0
KWA1 110625Z 23014KT 16/14 A2993 RMK A01 T01640139  RH  085%=      5-min Rain = 0
KWA1 110626Z 23011KT 16/14 A2993 RMK A01 T01640139  RH  085%=      5-min Rain = 0
KWA1 110627Z 23011KT 16/14 A2993 RMK A01 T01640139  RH  085%=      5-min Rain = 0
KWA1 110628Z 22013KT 16/14 A2993 RMK A01 T01630139  RH  086%=      5-min Rain = 0
KWA1 110629Z 22015KT 16/14 A2993 RMK A01 T01630139  RH  086%=      5-min Rain = 0
KWA1 110630Z 22013KT 16/14 A2993 RMK A01 T01630139  RH  086%=      5-min Rain = 0
KWA1 110631Z 22011KT 16/14 A2993 RMK A01 T01640139  RH  086%=      5-min Rain = 0
KWA1 110632Z 22013KT 16/14 A2993 RMK A01 T01630139  RH  086%=      5-min Rain = 0
KWA1 110633Z 22013KT 16/14 A2993 RMK A01 T01630139  RH  086%=      5-min Rain = 0
KWA1 110634Z 22014G20KT 16/14 A2993 RMK A01 T01630139  RH  086%=      5-min Rain = 0
KWA1 110635Z 22014KT 16/14 A2992 RMK A01 T01630139  RH  086%=      5-min Rain = 0
KWA1 110636Z 22014KT 16/14 A2992 RMK A01 T01630139  RH  086%=      5-min Rain = 0
KWA1 110637Z 22015KT 16/14 A2993 RMK A01 T01630139  RH  086%=      5-min Rain = 0
KWA1 110638Z 22014G19KT 16/14 A2992 RMK A01 T01640140  RH  086%=      5-min Rain = 0
KWA1 110639Z 22013KT 16/14 A2992 RMK A01 T01640139  RH  086%=      5-min Rain = 0
KWA1 110640Z 22013KT 16/14 A2992 RMK A01 T01630139  RH  086%=      5-min Rain = 0
KWA1 110641Z 22012KT 16/14 A2992 RMK A01 T01630140  RH  086%=      5-min Rain = 0
KWA1 110642Z 22015KT 16/14 A2992 RMK A01 T01630140  RH  086%=      5-min Rain = 0
KWA1 110643Z 22012G17KT 16/14 A2992 RMK A01 T01630140  RH  086%=      5-min Rain = 0
KWA1 110644Z 23013G18KT 16/14 A2992 RMK A01 T01630140  RH  086%=      5-min Rain = 0
KWA1 110645Z 22014KT 16/14 A2992 RMK A01 T01630140  RH  086%=      5-min Rain = 0
KWA1 110646Z 22015G21KT 16/14 A2992 RMK A01 T01630140  RH  086%=      5-min Rain = 0
KWA1 110647Z 22016KT 16/14 A2992 RMK A01 T01640140  RH  086%=      5-min Rain = 0
KWA1 110648Z 22015G20KT 16/14 A2992 RMK A01 T01640140  RH  086%=      5-min Rain = 0
KWA1 110649Z 22013KT 17/14 A2992 RMK A01 T01650140  RH  086%=      5-min Rain = 0
KWA1 110650Z 22015KT 16/14 A2992 RMK A01 T01640140  RH  086%=      5-min Rain = 0
KWA1 110651Z 22013KT 16/14 A2992 RMK A01 T01640140  RH  086%=      5-min Rain = 0
KWA1 110652Z 22012KT 16/14 A2992 RMK A01 T01640140  RH  086%=      5-min Rain = 0
KWA1 110653Z 22013KT 16/14 A2992 RMK A01 T01640140  RH  086%=      5-min Rain = 0
KWA1 110654Z 22015KT 16/14 A2992 RMK A01 T01630140  RH  086%=      5-min Rain = 0
KWA1 110655Z 22013KT 16/14 A2992 RMK A01 T01640140  RH  086%=      5-min Rain = 0
KWA1 110656Z 22012KT 16/14 A2992 RMK A01 T01640140  RH  086%=      5-min Rain = 0
KWA1 110657Z 23014G19KT 16/14 A2992 RMK A01 T01640140  RH  086%=      5-min Rain = 0
KWA1 110658Z 22014KT 16/14 A2992 RMK A01 T01640140  RH  086%=      5-min Rain = 0
KWA1 110659Z 22015KT 16/14 A2992 RMK A01 T01640140  RH  086%=      5-min Rain = 0
KWA1 110700Z 22014KT 16/14 A2992 RMK A01 T01640140  RH  086%=      5-min Rain = 0
KWA1 110701Z 23015G20KT 17/14 A2992 RMK A01 T01650141  RH  086%=      5-min Rain = 0
KWA1 110702Z 22015KT 17/14 A2992 RMK A01 T01650141  RH  086%=      5-min Rain = 0
KWA1 110703Z 22014G19KT 17/14 A2992 RMK A01 T01650140  RH  086%=      5-min Rain = 0
KWA1 110704Z 23014KT 17/14 A2992 RMK A01 T01650141  RH  086%=      5-min Rain = 0
KWA1 110705Z 22013G19KT 17/14 A2992 RMK A01 T01650141  RH  085%=      5-min Rain = 0
KWA1 110706Z 22013KT 17/14 A2992 RMK A01 T01650141  RH  086%=      5-min Rain = 0
KWA1 110707Z 23014KT 17/14 A2992 RMK A01 T01650141  RH  086%=      5-min Rain = 0
KWA1 110708Z 23013KT 17/14 A2992 RMK A01 T01650141  RH  086%=      5-min Rain = 0
KWA1 110709Z 23014KT 17/14 A2992 RMK A01 T01650141  RH  086%=      5-min Rain = 0
KWA1 110710Z 23014KT 17/14 A2992 RMK A01 T01650141  RH  086%=      5-min Rain = 0
KWA1 110711Z 22013KT 17/14 A2992 RMK A01 T01650141  RH  086%=      5-min Rain = 0
KWA1 110712Z 23014KT 17/14 A2992 RMK A01 T01650141  RH  086%=      5-min Rain = 0
KWA1 110713Z 22014KT 17/14 A2992 RMK A01 T01650141  RH  086%=      5-min Rain = 0
KWA1 110714Z 23012KT 17/14 A2992 RMK A01 T01650141  RH  086%=      5-min Rain = 0
KWA1 110715Z 23016KT 17/14 A2992 RMK A01 T01650141  RH  086%=      5-min Rain = 0
KWA1 110716Z 23014KT 17/14 A2992 RMK A01 T01650141  RH  086%=      5-min Rain = 0
KWA1 110717Z 23011KT 17/14 A2992 RMK A01 T01650141  RH  086%=      5-min Rain = 0
KWA1 110718Z 23013G18KT 17/14 A2992 RMK A01 T01650141  RH  086%=      5-min Rain = 0
KWA1 110719Z 22014KT 17/14 A2992 RMK A01 T01650141  RH  086%=      5-min Rain = 0
KWA1 110720Z 22013KT 16/14 A2992 RMK A01 T01640141  RH  086%=      5-min Rain = 0
KWA1 110721Z 22013KT 17/14 A2992 RMK A01 T01650141  RH  086%=      5-min Rain = 0
KWA1 110722Z 22015KT 17/14 A2992 RMK A01 T01650141  RH  086%=      5-min Rain = 0
KWA1 110723Z 22013KT 17/14 A2992 RMK A01 T01650141  RH  086%=      5-min Rain = 0
KWA1 110724Z 22014G19KT 17/14 A2992 RMK A01 T01650141  RH  086%=      5-min Rain = 0
KWA1 110725Z 23011KT 17/14 A2992 RMK A01 T01650141  RH  086%=      5-min Rain = 0
KWA1 110726Z 23013KT 17/14 A2992 RMK A01 T01650141  RH  086%=      5-min Rain = 0
KWA1 110727Z 22013KT 17/14 A2992 RMK A01 T01650142  RH  086%=      5-min Rain = 0
KWA1 110728Z 22014KT 17/14 A2993 RMK A01 T01650142  RH  086%=      5-min Rain = 0
KWA1 110729Z 22014KT 17/14 A2993 RMK A01 T01650142  RH  086%=      5-min Rain = 0
KWA1 110730Z 23012KT 17/14 A2993 RMK A01 T01650142  RH  086%=      5-min Rain = 0
KWA1 110731Z 22014KT 17/14 A2993 RMK A01 T01650141  RH  086%=      5-min Rain = 0
KWA1 110732Z 22014KT 17/14 A2992 RMK A01 T01650142  RH  086%=      5-min Rain = 0
KWA1 110733Z 22011KT 17/14 A2992 RMK A01 T01650142  RH  086%=      5-min Rain = 0
KWA1 110734Z 22014KT 17/14 A2992 RMK A01 T01650142  RH  086%=      5-min Rain = 0
KWA1 110735Z 22009KT 17/14 A2992 RMK A01 T01650142  RH  086%=      5-min Rain = 0
KWA1 110736Z 22012KT 17/14 A2993 RMK A01 T01650142  RH  086%=      5-min Rain = 0
KWA1 110737Z 22012G17KT 16/14 A2992 RMK A01 T01640142  RH  086%=      5-min Rain = 0
KWA1 110738Z 22012KT 17/14 A2992 RMK A01 T01650142  RH  086%=      5-min Rain = 0
KWA1 110739Z 22013KT 17/14 A2993 RMK A01 T01650142  RH  086%=      5-min Rain = 0
KWA1 110740Z 21012KT 17/14 A2992 RMK A01 T01650142  RH  086%=      5-min Rain = 0
KWA1 110741Z 22010KT 17/14 A2992 RMK A01 T01650142  RH  086%=      5-min Rain = 0
KWA1 110742Z 22013KT 17/14 A2992 RMK A01 T01650142  RH  086%=      5-min Rain = 0
KWA1 110743Z 21011KT 17/14 A2992 RMK A01 T01650142  RH  086%=      5-min Rain = 0
KWA1 110744Z 22012KT 17/14 A2992 RMK A01 T01650142  RH  086%=      5-min Rain = 0
KWA1 110745Z 22011KT 17/14 A2992 RMK A01 T01650142  RH  086%=      5-min Rain = 0
KWA1 110746Z 22012KT 17/14 A2992 RMK A01 T01650142  RH  086%=      5-min Rain = 0
KWA1 110747Z 21012KT 17/14 A2992 RMK A01 T01650142  RH  086%=      5-min Rain = 0
KWA1 110748Z 22011KT 17/14 A2992 RMK A01 T01650142  RH  086%=      5-min Rain = 0
KWA1 110749Z 22010KT 17/14 A2992 RMK A01 T01650142  RH  086%=      5-min Rain = 0
KWA1 110750Z 21010KT 17/14 A2992 RMK A01 T01650142  RH  086%=      5-min Rain = 0
KWA1 110751Z 22010KT 16/14 A2992 RMK A01 T01640142  RH  086%=      5-min Rain = 0
KWA1 110752Z 22010KT 17/14 A2992 RMK A01 T01650142  RH  087%=      5-min Rain = 0
KWA1 110753Z 21012KT 17/14 A2992 RMK A01 T01650142  RH  087%=      5-min Rain = 0
KWA1 110754Z 21011KT 17/14 A2992 RMK A01 T01650142  RH  086%=      5-min Rain = 0
KWA1 110755Z 22009KT 17/14 A2992 RMK A01 T01650142  RH  086%=      5-min Rain = 0
KWA1 110756Z 21010G15KT 17/14 A2992 RMK A01 T01650142  RH  086%=      5-min Rain = 0
KWA1 110757Z 22010KT 17/14 A2992 RMK A01 T01650142  RH  086%=      5-min Rain = 0
KWA1 110758Z 22011KT 17/14 A2992 RMK A01 T01650142  RH  086%=      5-min Rain = 0
KWA1 110759Z 22009KT 17/14 A2992 RMK A01 T01650142  RH  086%=      5-min Rain = 0
KWA1 110800Z 22009KT 17/14 A2992 RMK A01 T01650142  RH  086%=      5-min Rain = 0
KWA1 110801Z 22011KT 16/14 A2992 RMK A01 T01640142  RH  087%=      5-min Rain = 0
KWA1 110802Z 22011KT 17/14 A2992 RMK A01 T01650142  RH  087%=      5-min Rain = 0
KWA1 110803Z 23011KT 17/14 A2992 RMK A01 T01650142  RH  087%=      5-min Rain = 0
KWA1 110804Z 22012KT 17/14 A2992 RMK A01 T01650142  RH  086%=      5-min Rain = 0
KWA1 110805Z 23009KT 17/14 A2992 RMK A01 T01650142  RH  086%=      5-min Rain = 0
KWA1 110806Z 22014KT 17/14 A2992 RMK A01 T01650142  RH  086%=      5-min Rain = 0
KWA1 110807Z 22011KT 17/14 A2993 RMK A01 T01650142  RH  086%=      5-min Rain = 0
KWA1 110808Z 23009KT 17/14 A2993 RMK A01 T01650142  RH  086%=      5-min Rain = 0
KWA1 110809Z 23009KT 17/14 A2993 RMK A01 T01650142  RH  086%=      5-min Rain = 0
KWA1 110810Z 24010KT 17/14 A2993 RMK A01 T01650142  RH  087%=      5-min Rain = 0
KWA1 110811Z 24011KT 17/14 A2993 RMK A01 T01650142  RH  087%=      5-min Rain = 0
KWA1 110812Z 23009KT 17/14 A2993 RMK A01 T01650142  RH  087%=      5-min Rain = 0
KWA1 110813Z 23013KT 17/14 A2993 RMK A01 T01650143  RH  087%=      5-min Rain = 0
KWA1 110814Z 23010KT 17/14 A2993 RMK A01 T01650142  RH  087%=      5-min Rain = 0
KWA1 110815Z 23011G17KT 17/14 A2993 RMK A01 T01650142  RH  086%=      5-min Rain = 0
KWA1 110816Z 23012KT 17/14 A2993 RMK A01 T01650143  RH  086%=      5-min Rain = 0
KWA1 110817Z 23010KT 17/14 A2993 RMK A01 T01660143  RH  086%=      5-min Rain = 0
KWA1 110818Z 23011KT 17/14 A2993 RMK A01 T01660143  RH  086%=      5-min Rain = 0
KWA1 110819Z 23010KT 17/14 A2993 RMK A01 T01660143  RH  086%=      5-min Rain = 0
KWA1 110820Z 24007KT 17/14 A2994 RMK A01 T01660142  RH  086%=      5-min Rain = 0
KWA1 110821Z 24009KT 17/14 A2994 RMK A01 T01660143  RH  086%=      5-min Rain = 0
KWA1 110822Z 24009KT 17/14 A2994 RMK A01 T01660143  RH  086%=      5-min Rain = 0
KWA1 110823Z 23007KT 17/14 A2994 RMK A01 T01660143  RH  086%=      5-min Rain = 0
KWA1 110824Z 23009KT 17/14 A2994 RMK A01 T01660143  RH  086%=      5-min Rain = 0
KWA1 110825Z 24007KT 17/14 A2994 RMK A01 T01660143  RH  086%=      5-min Rain = 0
KWA1 110826Z 24009KT 17/14 A2994 RMK A01 T01660143  RH  086%=      5-min Rain = 0
KWA1 110827Z 23008KT 17/14 A2994 RMK A01 T01660143  RH  086%=      5-min Rain = 0
KWA1 110828Z 23008G13KT 17/14 A2994 RMK A01 T01660143  RH  086%=      5-min Rain = 0
KWA1 110829Z 23010KT 17/14 A2994 RMK A01 T01660143  RH  086%=      5-min Rain = 0
KWA1 110830Z 22011KT 17/14 A2993 RMK A01 T01660143  RH  086%=      5-min Rain = 0
KWA1 110831Z 23011KT 17/14 A2994 RMK A01 T01660143  RH  086%=      5-min Rain = 0
KWA1 110832Z 23009KT 17/14 A2994 RMK A01 T01660143  RH  086%=      5-min Rain = 0
KWA1 110833Z 23012KT 17/14 A2994 RMK A01 T01660143  RH  086%=      5-min Rain = 0
KWA1 110834Z 23010KT 17/14 A2994 RMK A01 T01670143  RH  086%=      5-min Rain = 0
KWA1 110835Z 23010KT 17/14 A2994 RMK A01 T01670143  RH  086%=      5-min Rain = 0
KWA1 110836Z 23009KT 17/14 A2994 RMK A01 T01670143  RH  086%=      5-min Rain = 0
KWA1 110837Z 22011KT 17/14 A2994 RMK A01 T01670144  RH  086%=      5-min Rain = 0
KWA1 110838Z 23011KT 17/14 A2994 RMK A01 T01670144  RH  086%=      5-min Rain = 0
KWA1 110839Z 24008G13KT 17/14 A2994 RMK A01 T01670143  RH  086%=      5-min Rain = 0
KWA1 110840Z 22010KT 17/14 A2994 RMK A01 T01670143  RH  086%=      5-min Rain = 0
KWA1 110841Z 22008KT 17/14 A2994 RMK A01 T01670143  RH  086%=      5-min Rain = 0
KWA1 110842Z 23007KT 17/14 A2994 RMK A01 T01670143  RH  086%=      5-min Rain = 0
KWA1 110843Z 23008KT 17/14 A2994 RMK A01 T01670144  RH  086%=      5-min Rain = 0
KWA1 110844Z 23011KT 17/14 A2994 RMK A01 T01670144  RH  086%=      5-min Rain = 0
KWA1 110845Z 22008KT 17/14 A2994 RMK A01 T01670144  RH  086%=      5-min Rain = 0
KWA1 110846Z 23008KT 17/14 A2994 RMK A01 T01670144  RH  086%=      5-min Rain = 0
KWA1 110847Z 23011KT 17/14 A2994 RMK A01 T01670144  RH  086%=      5-min Rain = 0
KWA1 110848Z 23009KT 17/14 A2994 RMK A01 T01670144  RH  086%=      5-min Rain = 0
KWA1 110849Z 23008KT 17/14 A2994 RMK A01 T01670144  RH  086%=      5-min Rain = 0
KWA1 110850Z 23009KT 17/14 A2994 RMK A01 T01670144  RH  086%=      5-min Rain = 0
KWA1 110851Z 23009KT 17/14 A2994 RMK A01 T01670144  RH  086%=      5-min Rain = 0
KWA1 110852Z 23008KT 17/14 A2994 RMK A01 T01670144  RH  086%=      5-min Rain = 0
KWA1 110853Z 22008KT 17/14 A2993 RMK A01 T01670144  RH  086%=      5-min Rain = 0
KWA1 110854Z 22008KT 17/14 A2993 RMK A01 T01670144  RH  086%=      5-min Rain = 0
KWA1 110855Z 22008KT 17/14 A2993 RMK A01 T01670144  RH  086%=      5-min Rain = 0
KWA1 110856Z 23009KT 17/14 A2994 RMK A01 T01670144  RH  086%=      5-min Rain = 0
KWA1 110857Z 23011KT 17/14 A2994 RMK A01 T01670144  RH  086%=      5-min Rain = 0
KWA1 110858Z 23010KT 17/14 A2994 RMK A01 T01670144  RH  086%=      5-min Rain = 0
KWA1 110859Z 24009KT 17/14 A2994 RMK A01 T01670144  RH  086%=      5-min Rain = 0
KWA1 110900Z 23007KT 17/14 A2994 RMK A01 T01670144  RH  086%=      5-min Rain = 0
KWA1 110901Z 22008KT 17/15 A2994 RMK A01 T01680145  RH  086%=      5-min Rain = 0
KWA1 110902Z 22009KT 17/14 A2994 RMK A01 T01670144  RH  086%=      5-min Rain = 0
KWA1 110903Z 23007KT 17/15 A2994 RMK A01 T01670145  RH  086%=      5-min Rain = 0
KWA1 110904Z 23008KT 17/14 A2994 RMK A01 T01670144  RH  087%=      5-min Rain = 0
KWA1 110905Z 23009KT 17/14 A2994 RMK A01 T01670144  RH  087%=      5-min Rain = 0
KWA1 110906Z 23009KT 17/14 A2994 RMK A01 T01670144  RH  087%=      5-min Rain = 0
KWA1 110907Z 23010KT 17/14 A2994 RMK A01 T01670144  RH  086%=      5-min Rain = 0
KWA1 110908Z 22010KT 17/14 A2993 RMK A01 T01670144  RH  086%=      5-min Rain = 0
KWA1 110909Z 22011KT 17/14 A2993 RMK A01 T01670144  RH  086%=      5-min Rain = 0
KWA1 110910Z 22010KT 17/15 A2993 RMK A01 T01680145  RH  086%=      5-min Rain = 0
KWA1 110911Z 22010KT 17/15 A2993 RMK A01 T01680145  RH  086%=      5-min Rain = 0
KWA1 110912Z 22011KT 17/15 A2993 RMK A01 T01680145  RH  086%=      5-min Rain = 0
KWA1 110913Z 23010KT 17/14 A2994 RMK A01 T01680144  RH  086%=      5-min Rain = 0
KWA1 110914Z 23010G15KT 17/15 A2994 RMK A01 T01680145  RH  086%=      5-min Rain = 0
KWA1 110915Z 22012KT 17/15 A2994 RMK A01 T01680145  RH  086%=      5-min Rain = 0
KWA1 110916Z 22010KT 17/15 A2994 RMK A01 T01680145  RH  086%=      5-min Rain = 0
KWA1 110917Z 22010KT 17/15 A2994 RMK A01 T01680145  RH  086%=      5-min Rain = 0
KWA1 110918Z 22011KT 17/15 A2994 RMK A01 T01680145  RH  086%=      5-min Rain = 0
KWA1 110919Z 22010KT 17/15 A2994 RMK A01 T01680145  RH  086%=      5-min Rain = 0
KWA1 110920Z 23011KT 17/15 A2993 RMK A01 T01680145  RH  086%=      5-min Rain = 0
KWA1 110921Z 22011KT 17/15 A2993 RMK A01 T01680145  RH  086%=      5-min Rain = 0
KWA1 110922Z 22011KT 17/15 A2993 RMK A01 T01680145  RH  086%=      5-min Rain = 0
KWA1 110923Z 22011KT 17/15 A2993 RMK A01 T01680145  RH  086%=      5-min Rain = 0
KWA1 110924Z 22011KT 17/15 A2993 RMK A01 T01680145  RH  086%=      5-min Rain = 0
KWA1 110925Z 22010KT 17/15 A2993 RMK A01 T01680145  RH  086%=      5-min Rain = 0
KWA1 110926Z 22010KT 17/15 A2993 RMK A01 T01680145  RH  086%=      5-min Rain = 0
KWA1 110927Z 22014KT 17/15 A2993 RMK A01 T01680145  RH  087%=      5-min Rain = 0
KWA1 110928Z 22011KT 17/15 A2993 RMK A01 T01680145  RH  086%=      5-min Rain = 0
KWA1 110929Z 22011KT 17/15 A2993 RMK A01 T01680145  RH  086%=      5-min Rain = 0
KWA1 110930Z 22010KT 17/15 A2993 RMK A01 T01680145  RH  086%=      5-min Rain = 0
KWA1 110931Z 22013KT 17/15 A2993 RMK A01 T01680145  RH  086%=      5-min Rain = 0
KWA1 110932Z 22011KT 17/15 A2993 RMK A01 T01680145  RH  086%=      5-min Rain = 0
KWA1 110933Z 22012KT 17/15 A2993 RMK A01 T01680145  RH  086%=      5-min Rain = 0
KWA1 110934Z 22013KT 17/15 A2993 RMK A01 T01680145  RH  086%=      5-min Rain = 0
KWA1 110935Z 22011KT 17/15 A2993 RMK A01 T01680145  RH  086%=      5-min Rain = 0
KWA1 110936Z 22010KT 17/15 A2993 RMK A01 T01680145  RH  086%=      5-min Rain = 0
KWA1 110937Z 22012KT 17/15 A2993 RMK A01 T01680145  RH  086%=      5-min Rain = 0
KWA1 110938Z 22013KT 17/15 A2993 RMK A01 T01680145  RH  086%=      5-min Rain = 0
KWA1 110939Z 23012KT 17/15 A2993 RMK A01 T01680145  RH  086%=      5-min Rain = 0
KWA1 110940Z 22011KT 17/15 A2993 RMK A01 T01680145  RH  086%=      5-min Rain = 0
KWA1 110941Z 22011KT 17/15 A2993 RMK A01 T01680145  RH  086%=      5-min Rain = 0
KWA1 110942Z 22010KT 17/15 A2993 RMK A01 T01680145  RH  086%=      5-min Rain = 0
KWA1 110943Z 22010KT 17/15 A2993 RMK A01 T01680145  RH  086%=      5-min Rain = 0
KWA1 110944Z 23009KT 17/15 A2993 RMK A01 T01680145  RH  086%=      5-min Rain = 0
KWA1 110945Z 23011KT 17/15 A2993 RMK A01 T01680146  RH  086%=      5-min Rain = 0
KWA1 110946Z 22011KT 17/15 A2993 RMK A01 T01680145  RH  086%=      5-min Rain = 0
KWA1 110947Z 22011KT 17/15 A2993 RMK A01 T01680145  RH  086%=      5-min Rain = 0
KWA1 110948Z 22010KT 17/15 A2993 RMK A01 T01680145  RH  086%=      5-min Rain = 0
KWA1 110949Z 22009KT 17/15 A2993 RMK A01 T01680145  RH  086%=      5-min Rain = 0
KWA1 110950Z 23012KT 17/15 A2993 RMK A01 T01680145  RH  087%=      5-min Rain = 0
KWA1 110951Z 23011KT 17/15 A2993 RMK A01 T01680145  RH  086%=      5-min Rain = 0
KWA1 110952Z 23010KT 17/15 A2993 RMK A01 T01680145  RH  086%=      5-min Rain = 0
KWA1 110953Z 22011G16KT 17/15 A2993 RMK A01 T01680145  RH  086%=      5-min Rain = 0
KWA1 110954Z 22010KT 17/15 A2993 RMK A01 T01680145  RH  086%=      5-min Rain = 0
KWA1 110955Z 22011KT 17/15 A2993 RMK A01 T01680145  RH  086%=      5-min Rain = 0
KWA1 110956Z 23011KT 17/15 A2993 RMK A01 T01680145  RH  086%=      5-min Rain = 0
KWA1 110957Z 23013KT 17/15 A2993 RMK A01 T01680145  RH  086%=      5-min Rain = 0
KWA1 110958Z 22013KT 17/15 A2993 RMK A01 T01680145  RH  086%=      5-min Rain = 0
KWA1 110959Z 23014KT 17/15 A2993 RMK A01 T01690145  RH  086%=      5-min Rain = 0
KWA1 111000Z 22012KT 17/15 A2993 RMK A01 T01690145  RH  086%=      5-min Rain = 0
KWA1 111001Z 23013KT 17/15 A2993 RMK A01 T01690145  RH  086%=      5-min Rain = 0
KWA1 111002Z 22010KT 17/15 A2993 RMK A01 T01690145  RH  086%=      5-min Rain = 0
KWA1 111003Z 23012KT 17/15 A2993 RMK A01 T01690145  RH  086%=      5-min Rain = 0
KWA1 111004Z 23011KT 17/15 A2993 RMK A01 T01690145  RH  086%=      5-min Rain = 0
KWA1 111005Z 22011KT 17/15 A2993 RMK A01 T01680145  RH  086%=      5-min Rain = 0
KWA1 111006Z 22012KT 17/15 A2993 RMK A01 T01690145  RH  086%=      5-min Rain = 0
KWA1 111007Z 22012KT 17/15 A2993 RMK A01 T01690145  RH  086%=      5-min Rain = 0
KWA1 111008Z 23011KT 17/15 A2993 RMK A01 T01690146  RH  086%=      5-min Rain = 0
KWA1 111009Z 23010G16KT 17/15 A2993 RMK A01 T01690146  RH  086%=      5-min Rain = 0
KWA1 111010Z 21012KT 17/15 A2993 RMK A01 T01690146  RH  086%=      5-min Rain = 0
KWA1 111011Z 22012KT 17/15 A2993 RMK A01 T01690146  RH  086%=      5-min Rain = 0
KWA1 111012Z 23011KT 17/15 A2993 RMK A01 T01690145  RH  086%=      5-min Rain = 0
KWA1 111013Z 23011G16KT 17/15 A2993 RMK A01 T01690146  RH  086%=      5-min Rain = 0
KWA1 111014Z 22012KT 17/15 A2993 RMK A01 T01690145  RH  086%=      5-min Rain = 0
KWA1 111015Z 23010KT 17/15 A2993 RMK A01 T01690145  RH  086%=      5-min Rain = 0
KWA1 111016Z 23012KT 17/15 A2993 RMK A01 T01690145  RH  086%=      5-min Rain = 0
KWA1 111017Z 23011KT 17/15 A2992 RMK A01 T01690145  RH  086%=      5-min Rain = 0
KWA1 111018Z 22010KT 17/15 A2992 RMK A01 T01690145  RH  086%=      5-min Rain = 0
KWA1 111019Z 22009KT 17/15 A2992 RMK A01 T01690145  RH  086%=      5-min Rain = 0
KWA1 111020Z 23011KT 17/15 A2992 RMK A01 T01680145  RH  086%=      5-min Rain = 0
KWA1 111021Z 22011KT 17/15 A2992 RMK A01 T01680145  RH  086%=      5-min Rain = 0
KWA1 111022Z 23012KT 17/15 A2992 RMK A01 T01680145  RH  086%=      5-min Rain = 0
KWA1 111023Z 23012KT 17/15 A2992 RMK A01 T01680145  RH  087%=      5-min Rain = 0
KWA1 111024Z 22010KT 17/15 A2992 RMK A01 T01680145  RH  086%=      5-min Rain = 0
KWA1 111025Z 23012KT 17/15 A2992 RMK A01 T01680145  RH  086%=      5-min Rain = 0
KWA1 111026Z 23010KT 17/15 A2992 RMK A01 T01680145  RH  087%=      5-min Rain = 0
KWA1 111027Z 23010KT 17/15 A2992 RMK A01 T01680145  RH  087%=      5-min Rain = 0
KWA1 111028Z 23010KT 17/15 A2992 RMK A01 T01670145  RH  087%=      5-min Rain = 0
KWA1 111029Z 23010KT 17/15 A2992 RMK A01 T01670145  RH  087%=      5-min Rain = 0
KWA1 111030Z 23009KT 17/15 A2992 RMK A01 T01670145  RH  087%=      5-min Rain = 0
KWA1 111031Z 23009KT 17/15 A2993 RMK A01 T01670145  RH  087%=      5-min Rain = 0
KWA1 111032Z 23010KT 17/15 A2992 RMK A01 T01660145  RH  087%=      5-min Rain = 0
KWA1 111033Z 23010KT 17/15 A2992 RMK A01 T01660145  RH  087%=      5-min Rain = 0
KWA1 111034Z 23010KT 17/15 A2992 RMK A01 T01660145  RH  087%=      5-min Rain = 0
KWA1 111035Z 23010KT 17/15 A2992 RMK A01 T01660145  RH  087%=      5-min Rain = 0
KWA1 111036Z 23010KT 17/15 A2992 RMK A01 T01650145  RH  087%=      5-min Rain = 0
KWA1 111037Z 22010KT 17/15 A2993 RMK A01 T01660145  RH  087%=      5-min Rain = 0
KWA1 111038Z 22010KT 17/15 A2993 RMK A01 T01650145  RH  087%=      5-min Rain = 0
KWA1 111039Z 22011KT 17/15 A2993 RMK A01 T01650145  RH  088%=      5-min Rain = 0
KWA1 111040Z 22009KT 17/15 A2993 RMK A01 T01650145  RH  088%=      5-min Rain = 0
KWA1 111041Z 22011KT 17/14 A2993 RMK A01 T01650144  RH  088%=      5-min Rain = 0
KWA1 111042Z 22010KT 17/15 A2993 RMK A01 T01650145  RH  088%=      5-min Rain = 0
KWA1 111043Z 22010KT 17/15 A2993 RMK A01 T01650145  RH  088%=      5-min Rain = 0
KWA1 111044Z 23011KT 17/15 A2993 RMK A01 T01650145  RH  088%=      5-min Rain = 0
KWA1 111045Z 22010KT 17/15 A2993 RMK A01 T01650145  RH  088%=      5-min Rain = 0
KWA1 111046Z 22009KT 17/14 A2993 RMK A01 T01650144  RH  088%=      5-min Rain = 0
KWA1 111047Z 22011KT 17/15 A2993 RMK A01 T01650145  RH  088%=      5-min Rain = 0
KWA1 111048Z 22010KT 17/15 A2993 RMK A01 T01660145  RH  088%=      5-min Rain = 0
KWA1 111049Z 23010KT 17/14 A2993 RMK A01 T01650144  RH  087%=      5-min Rain = 0
KWA1 111050Z 22008KT 17/15 A2993 RMK A01 T01660145  RH  088%=      5-min Rain = 0
KWA1 111051Z 23008KT 17/14 A2993 RMK A01 T01650144  RH  088%=      5-min Rain = 0
KWA1 111052Z 22007KT 17/15 A2993 RMK A01 T01650145  RH  088%=      5-min Rain = 0
KWA1 111053Z 23009KT 17/15 A2993 RMK A01 T01650145  RH  088%=      5-min Rain = 0
KWA1 111054Z 23009KT 16/15 A2993 RMK A01 T01640145  RH  088%=      5-min Rain = 0
KWA1 111055Z 22009KT 17/15 A2993 RMK A01 T01650145  RH  088%=      5-min Rain = 0
KWA1 111056Z 23009KT 16/15 A2993 RMK A01 T01640145  RH  088%=      5-min Rain = 0
KWA1 111057Z 23010KT 17/15 A2993 RMK A01 T01650145  RH  088%=      5-min Rain = 0
KWA1 111058Z 23010KT 17/15 A2993 RMK A01 T01650145  RH  088%=      5-min Rain = 0
KWA1 111059Z 23008KT 17/15 A2993 RMK A01 T01650145  RH  088%=      5-min Rain = 0
KWA1 111100Z 22010KT 17/15 A2993 RMK A01 T01650145  RH  088%=      5-min Rain = 0
KWA1 111101Z 23010KT 17/15 A2993 RMK A01 T01650145  RH  088%=      5-min Rain = 0
KWA1 111102Z 22009KT 17/15 A2993 RMK A01 T01650145  RH  088%=      5-min Rain = 0
KWA1 111103Z 22008KT 17/15 A2993 RMK A01 T01650145  RH  088%=      5-min Rain = 0
KWA1 111104Z 22009KT 17/14 A2993 RMK A01 T01650144  RH  088%=      5-min Rain = 0
KWA1 111105Z 22008KT 16/15 A2993 RMK A01 T01640145  RH  088%=      5-min Rain = 0
KWA1 111106Z 23009KT 16/14 A2993 RMK A01 T01640144  RH  088%=      5-min Rain = 0
KWA1 111107Z 22010KT 16/15 A2993 RMK A01 T01640145  RH  088%=      5-min Rain = 0
KWA1 111108Z 23010KT 16/15 A2993 RMK A01 T01640145  RH  088%=      5-min Rain = 0
KWA1 111109Z 22010KT 17/15 A2993 RMK A01 T01650145  RH  088%=      5-min Rain = 0
KWA1 111110Z 22010KT 17/15 A2993 RMK A01 T01650145  RH  088%=      5-min Rain = 0
KWA1 111111Z 22010KT 17/15 A2993 RMK A01 T01660145  RH  088%=      5-min Rain = 0
KWA1 111112Z 22010KT 17/15 A2993 RMK A01 T01660145  RH  088%=      5-min Rain = 0
KWA1 111113Z 22010KT 17/15 A2993 RMK A01 T01650145  RH  088%=      5-min Rain = 0
KWA1 111114Z 23009KT 17/15 A2993 RMK A01 T01650145  RH  088%=      5-min Rain = 0
KWA1 111115Z 22010KT 17/15 A2993 RMK A01 T01660145  RH  088%=      5-min Rain = 0
KWA1 111116Z 22009KT 17/15 A2993 RMK A01 T01650145  RH  088%=      5-min Rain = 0
KWA1 111117Z 22009KT 17/15 A2993 RMK A01 T01650145  RH  088%=      5-min Rain = 0
KWA1 111118Z 22008KT 17/15 A2993 RMK A01 T01660145  RH  088%=      5-min Rain = 0
KWA1 111119Z 22009KT 17/15 A2993 RMK A01 T01660145  RH  088%=      5-min Rain = 0
KWA1 111120Z 22009KT 17/15 A2993 RMK A01 T01650145  RH  088%=      5-min Rain = 0
KWA1 111121Z 22008KT 17/15 A2993 RMK A01 T01650145  RH  088%=      5-min Rain = 0
KWA1 111122Z 22008KT 17/15 A2993 RMK A01 T01650145  RH  088%=      5-min Rain = 0
KWA1 111123Z 22010KT 17/15 A2993 RMK A01 T01650145  RH  088%=      5-min Rain = 0
KWA1 111124Z 22009KT 17/15 A2993 RMK A01 T01650145  RH  088%=      5-min Rain = 0
KWA1 111125Z 22008KT 17/15 A2993 RMK A01 T01650145  RH  088%=      5-min Rain = 0
KWA1 111126Z 22010KT 17/15 A2993 RMK A01 T01650145  RH  088%=      5-min Rain = 0
KWA1 111127Z 22009KT 17/15 A2993 RMK A01 T01650145  RH  088%=      5-min Rain = 0
KWA1 111128Z 22009KT 17/15 A2993 RMK A01 T01650145  RH  088%=      5-min Rain = 0
KWA1 111129Z 23010KT 17/15 A2993 RMK A01 T01650145  RH  088%=      5-min Rain = 0
KWA1 111130Z 22008KT 17/15 A2993 RMK A01 T01650145  RH  088%=      5-min Rain = 0
KWA1 111131Z 23009KT 17/15 A2993 RMK A01 T01650145  RH  088%=      5-min Rain = 0
KWA1 111132Z 23011KT 17/15 A2993 RMK A01 T01650145  RH  088%=      5-min Rain = 0
KWA1 111133Z 23010KT 17/15 A2993 RMK A01 T01660145  RH  088%=      5-min Rain = 0
KWA1 111134Z 23010KT 17/15 A2993 RMK A01 T01660146  RH  088%=      5-min Rain = 0
KWA1 111135Z 22009KT 17/15 A2993 RMK A01 T01670146  RH  088%=      5-min Rain = 0
KWA1 111136Z 22009KT 17/15 A2993 RMK A01 T01660145  RH  087%=      5-min Rain = 0
KWA1 111137Z 22009KT 17/15 A2993 RMK A01 T01660145  RH  087%=      5-min Rain = 0
KWA1 111138Z 23010KT 17/15 A2993 RMK A01 T01660146  RH  087%=      5-min Rain = 0
KWA1 111139Z 23009KT 17/15 A2993 RMK A01 T01660146  RH  088%=      5-min Rain = 0
KWA1 111140Z 23010KT 17/15 A2993 RMK A01 T01660145  RH  088%=      5-min Rain = 0
KWA1 111141Z 23009KT 17/15 A2993 RMK A01 T01660145  RH  088%=      5-min Rain = 0
KWA1 111142Z 23008KT 17/15 A2993 RMK A01 T01660145  RH  088%=      5-min Rain = 0
KWA1 111143Z 22009KT 17/15 A2993 RMK A01 T01660146  RH  088%=      5-min Rain = 0
KWA1 111144Z 22011KT 17/15 A2993 RMK A01 T01660145  RH  088%=      5-min Rain = 0
KWA1 111145Z 22009KT 17/15 A2993 RMK A01 T01650145  RH  088%=      5-min Rain = 0
KWA1 111146Z 22009KT 17/15 A2993 RMK A01 T01660145  RH  088%=      5-min Rain = 0
KWA1 111147Z 22008KT 17/15 A2993 RMK A01 T01650145  RH  088%=      5-min Rain = 0
KWA1 111148Z 22010KT 17/15 A2993 RMK A01 T01650145  RH  088%=      5-min Rain = 0
KWA1 111149Z 22009KT 17/15 A2993 RMK A01 T01650145  RH  088%=      5-min Rain = 0
KWA1 111150Z 22008KT 16/15 A2993 RMK A01 T01640145  RH  088%=      5-min Rain = 0
KWA1 111151Z 22008KT 16/15 A2993 RMK A01 T01640145  RH  088%=      5-min Rain = 0
KWA1 111152Z 22009KT 16/15 A2993 RMK A01 T01640145  RH  089%=      5-min Rain = 0
KWA1 111153Z 22010KT 16/15 A2993 RMK A01 T01640145  RH  089%=      5-min Rain = 0
KWA1 111154Z 22010KT 16/15 A2993 RMK A01 T01640145  RH  089%=      5-min Rain = 0
KWA1 111155Z 22010KT 16/15 A2993 RMK A01 T01640145  RH  088%=      5-min Rain = 0
KWA1 111156Z 22010KT 16/15 A2993 RMK A01 T01640145  RH  088%=      5-min Rain = 0
KWA1 111157Z 23009KT 16/15 A2993 RMK A01 T01640145  RH  088%=      5-min Rain = 0
KWA1 111158Z 22007KT 16/15 A2993 RMK A01 T01640145  RH  088%=      5-min Rain = 0
KWA1 111159Z 23008KT 16/15 A2993 RMK A01 T01640145  RH  088%=      5-min Rain = 0
KWA1 111200Z 22009KT 16/15 A2993 RMK A01 T01640145  RH  089%=      5-min Rain = 0
KWA1 111201Z 23009KT 16/15 A2993 RMK A01 T01640145  RH  089%=      5-min Rain = 0
KWA1 111202Z 23009KT 16/15 A2993 RMK A01 T01640145  RH  089%=      5-min Rain = 0
KWA1 111203Z 23007KT 16/15 A2993 RMK A01 T01640145  RH  088%=      5-min Rain = 0
KWA1 111204Z 23008KT 16/15 A2993 RMK A01 T01640145  RH  088%=      5-min Rain = 0
KWA1 111205Z 23008KT 16/15 A2993 RMK A01 T01640145  RH  089%=      5-min Rain = 0
KWA1 111206Z 23009KT 16/15 A2993 RMK A01 T01630145  RH  089%=      5-min Rain = 0
KWA1 111207Z 22009KT 16/15 A2993 RMK A01 T01630145  RH  089%=      5-min Rain = 0
KWA1 111208Z 23007KT 16/15 A2993 RMK A01 T01630145  RH  089%=      5-min Rain = 0
KWA1 111209Z 23009KT 16/14 A2993 RMK A01 T01630144  RH  089%=      5-min Rain = 0
KWA1 111210Z 23008KT 16/14 A2994 RMK A01 T01630144  RH  089%=      5-min Rain = 0
KWA1 111211Z 22008KT 16/14 A2994 RMK A01 T01620144  RH  089%=      5-min Rain = 0
KWA1 111212Z 23010KT 16/15 A2994 RMK A01 T01620145  RH  089%=      5-min Rain = 0
KWA1 111213Z 22010KT 16/15 A2993 RMK A01 T01620145  RH  089%=      5-min Rain = 0
KWA1 111214Z 23009KT 16/15 A2993 RMK A01 T01620145  RH  089%=      5-min Rain = 0
KWA1 111215Z 23009KT 16/15 A2993 RMK A01 T01630145  RH  089%=      5-min Rain = 0
KWA1 111216Z 23011KT 16/15 A2993 RMK A01 T01630145  RH  089%=      5-min Rain = 0
KWA1 111217Z 23010KT 16/15 A2994 RMK A01 T01630145  RH  089%=      5-min Rain = 0
KWA1 111218Z 23010KT 16/15 A2994 RMK A01 T01630145  RH  089%=      5-min Rain = 0
KWA1 111219Z 23010KT 16/14 A2994 RMK A01 T01630144  RH  089%=      5-min Rain = 0
KWA1 111220Z 22010KT 16/15 A2994 RMK A01 T01630145  RH  089%=      5-min Rain = 0
KWA1 111221Z 22011KT 16/15 A2994 RMK A01 T01630145  RH  089%=      5-min Rain = 0
KWA1 111222Z 22011KT 16/15 A2993 RMK A01 T01630145  RH  089%=      5-min Rain = 0
KWA1 111223Z 23010KT 16/15 A2993 RMK A01 T01630145  RH  089%=      5-min Rain = 0
KWA1 111224Z 23008KT 16/14 A2994 RMK A01 T01630144  RH  089%=      5-min Rain = 0
KWA1 111225Z 22009KT 16/15 A2994 RMK A01 T01630145  RH  089%=      5-min Rain = 0
KWA1 111226Z 22010KT 16/15 A2994 RMK A01 T01620145  RH  089%=      5-min Rain = 0
KWA1 111227Z 23011KT 16/15 A2994 RMK A01 T01620145  RH  089%=      5-min Rain = 0
KWA1 111228Z 22011KT 16/15 A2994 RMK A01 T01620145  RH  089%=      5-min Rain = 0
KWA1 111229Z 23010KT 16/15 A2994 RMK A01 T01620145  RH  089%=      5-min Rain = 0
KWA1 111230Z 22009KT 16/15 A2994 RMK A01 T01620145  RH  089%=      5-min Rain = 0
KWA1 111231Z 22009KT 16/15 A2994 RMK A01 T01620145  RH  089%=      5-min Rain = 0
KWA1 111232Z 22010KT 16/15 A2994 RMK A01 T01620145  RH  089%=      5-min Rain = 0
KWA1 111233Z 22010KT 16/15 A2994 RMK A01 T01620145  RH  090%=      5-min Rain = 0
KWA1 111234Z 23010KT 16/15 A2994 RMK A01 T01620146  RH  090%=      5-min Rain = 0
KWA1 111235Z 22010KT 16/15 A2994 RMK A01 T01620145  RH  090%=      5-min Rain = 0
KWA1 111236Z 22010KT 16/15 A2994 RMK A01 T01620145  RH  090%=      5-min Rain = 0
KWA1 111237Z 22010KT 16/15 A2994 RMK A01 T01620145  RH  090%=      5-min Rain = 0
KWA1 111238Z 23009KT 16/15 A2994 RMK A01 T01620145  RH  090%=      5-min Rain = 0
KWA1 111239Z 23010G15KT 16/15 A2994 RMK A01 T01620145  RH  090%=      5-min Rain = 0
KWA1 111240Z 22010KT 16/15 A2994 RMK A01 T01620145  RH  090%=      5-min Rain = 0
KWA1 111241Z 22009KT 16/15 A2994 RMK A01 T01620145  RH  090%=      5-min Rain = 0
KWA1 111242Z 22009KT 16/15 A2994 RMK A01 T01620145  RH  090%=      5-min Rain = 0
KWA1 111243Z 22008KT 16/15 A2994 RMK A01 T01620146  RH  090%=      5-min Rain = 0
KWA1 111244Z 22010KT 16/15 A2994 RMK A01 T01620145  RH  090%=      5-min Rain = 0
KWA1 111245Z 23009KT 16/15 A2994 RMK A01 T01620145  RH  090%=      5-min Rain = 0
KWA1 111246Z 23010KT 16/15 A2994 RMK A01 T01620145  RH  090%=      5-min Rain = 0
KWA1 111247Z 23010KT 16/15 A2994 RMK A01 T01620146  RH  090%=      5-min Rain = 0
KWA1 111248Z 23011KT 16/15 A2995 RMK A01 T01620145  RH  090%=      5-min Rain = 0
KWA1 111249Z 23010KT 16/15 A2995 RMK A01 T01620146  RH  090%=      5-min Rain = 0
KWA1 111250Z 23010KT 16/15 A2995 RMK A01 T01620146  RH  090%=      5-min Rain = 0
KWA1 111251Z 23010KT 16/15 A2995 RMK A01 T01620146  RH  090%=      5-min Rain = 0
KWA1 111252Z 23008KT 16/15 A2995 RMK A01 T01620145  RH  090%=      5-min Rain = 0
KWA1 111253Z 23007KT 16/15 A2995 RMK A01 T01620145  RH  090%=      5-min Rain = 0
KWA1 111254Z 23008KT 16/15 A2995 RMK A01 T01620145  RH  090%=      5-min Rain = 0
KWA1 111255Z 23012KT 16/15 A2995 RMK A01 T01620146  RH  091%=      5-min Rain = 0
KWA1 111256Z 23008KT 16/15 A2995 RMK A01 T01620146  RH  090%=      5-min Rain = 0
KWA1 111257Z 23009KT 16/15 A2995 RMK A01 T01620146  RH  090%=      5-min Rain = 0
KWA1 111258Z 23008KT 16/15 A2995 RMK A01 T01620146  RH  090%=      5-min Rain = 0
KWA1 111259Z 23008KT 16/15 A2995 RMK A01 T01620146  RH  090%=      5-min Rain = 0
KWA1 111300Z 23009KT 16/15 A2995 RMK A01 T01620146  RH  090%=      5-min Rain = 0
KWA1 111301Z 23009KT 16/15 A2995 RMK A01 T01620146  RH  090%=      5-min Rain = 0
KWA1 111302Z 23009KT 16/15 A2995 RMK A01 T01620146  RH  090%=      5-min Rain = 0
KWA1 111303Z 23008KT 16/15 A2995 RMK A01 T01620146  RH  090%=      5-min Rain = 0
KWA1 111304Z 23009KT 16/15 A2995 RMK A01 T01620146  RH  090%=      5-min Rain = 0
KWA1 111305Z 23009KT 16/15 A2995 RMK A01 T01620146  RH  090%=      5-min Rain = 0
KWA1 111306Z 23010KT 16/15 A2996 RMK A01 T01620146  RH  090%=      5-min Rain = 0
KWA1 111307Z 23009KT 16/15 A2996 RMK A01 T01620146  RH  090%=      5-min Rain = 0
KWA1 111308Z 23010KT 16/15 A2996 RMK A01 T01620146  RH  090%=      5-min Rain = 0
KWA1 111309Z 23010KT 16/15 A2996 RMK A01 T01620146  RH  090%=      5-min Rain = 0
KWA1 111310Z 23011KT 16/15 A2996 RMK A01 T01620146  RH  090%=      5-min Rain = 0
KWA1 111311Z 23010KT 16/15 A2996 RMK A01 T01620146  RH  090%=      5-min Rain = 0
KWA1 111312Z 23011KT 16/15 A2996 RMK A01 T01620146  RH  090%=      5-min Rain = 0
KWA1 111313Z 23011KT 16/15 A2996 RMK A01 T01620146  RH  090%=      5-min Rain = 0
KWA1 111314Z 23009KT 16/15 A2996 RMK A01 T01620146  RH  090%=      5-min Rain = 0
KWA1 111315Z 23010KT 16/15 A2996 RMK A01 T01620146  RH  090%=      5-min Rain = 0
KWA1 111316Z 23011KT 16/15 A2996 RMK A01 T01620146  RH  090%=      5-min Rain = 0
KWA1 111317Z 23009KT 16/15 A2996 RMK A01 T01620146  RH  090%=      5-min Rain = 0
KWA1 111318Z 23011KT 16/15 A2996 RMK A01 T01620146  RH  090%=      5-min Rain = 0
KWA1 111319Z 23010KT 16/15 A2996 RMK A01 T01620146  RH  090%=      5-min Rain = 0
KWA1 111320Z 23011KT 16/15 A2996 RMK A01 T01620146  RH  090%=      5-min Rain = 0
KWA1 111321Z 23010KT 16/15 A2996 RMK A01 T01630146  RH  090%=      5-min Rain = 0
KWA1 111322Z 23009KT 16/15 A2996 RMK A01 T01630146  RH  090%=      5-min Rain = 0
KWA1 111323Z 23009KT 16/15 A2996 RMK A01 T01630147  RH  090%=      5-min Rain = 0
KWA1 111324Z 23010KT 16/15 A2996 RMK A01 T01630146  RH  090%=      5-min Rain = 0
KWA1 111325Z 23010KT 16/15 A2996 RMK A01 T01630147  RH  090%=      5-min Rain = 0
KWA1 111326Z 23011KT 16/15 A2996 RMK A01 T01620146  RH  090%=      5-min Rain = 0
KWA1 111327Z 23010KT 16/15 A2996 RMK A01 T01620146  RH  090%=      5-min Rain = 0
KWA1 111328Z 23009KT 16/15 A2997 RMK A01 T01620146  RH  090%=      5-min Rain = 0
KWA1 111329Z 23010KT 16/15 A2997 RMK A01 T01620146  RH  090%=      5-min Rain = 0
KWA1 111330Z 23010KT 16/15 A2997 RMK A01 T01620146  RH  090%=      5-min Rain = 0
KWA1 111331Z 23009KT 16/15 A2997 RMK A01 T01620146  RH  090%=      5-min Rain = 0
KWA1 111332Z 23008KT 16/15 A2997 RMK A01 T01630147  RH  090%=      5-min Rain = 0
KWA1 111333Z 23007KT 16/15 A2997 RMK A01 T01630147  RH  090%=      5-min Rain = 0
KWA1 111334Z 24009KT 16/15 A2997 RMK A01 T01630147  RH  090%=      5-min Rain = 0
KWA1 111335Z 24008KT 16/15 A2997 RMK A01 T01620146  RH  090%=      5-min Rain = 0
KWA1 111336Z 24010KT 16/15 A2997 RMK A01 T01630147  RH  090%=      5-min Rain = 0
KWA1 111337Z 24011KT 16/15 A2997 RMK A01 T01630147  RH  090%=      5-min Rain = 0
KWA1 111338Z 25008KT 16/15 A2997 RMK A01 T01640147  RH  090%=      5-min Rain = 0
KWA1 111339Z 24007KT 16/15 A2997 RMK A01 T01640147  RH  090%=      5-min Rain = 0
KWA1 111340Z 24008KT 16/15 A2997 RMK A01 T01640147  RH  090%=      5-min Rain = 0
KWA1 111341Z 24009KT 16/15 A2998 RMK A01 T01640147  RH  090%=      5-min Rain = 0
KWA1 111342Z 25008KT 16/15 A2998 RMK A01 T01640147  RH  090%=      5-min Rain = 0
KWA1 111343Z 25008KT 16/15 A2998 RMK A01 T01640147  RH  090%=      5-min Rain = 0
KWA1 111344Z 25007KT 16/15 A2998 RMK A01 T01640147  RH  090%=      5-min Rain = 0
KWA1 111345Z 25008KT 17/15 A2998 RMK A01 T01650147  RH  090%=      5-min Rain = 0
KWA1 111346Z 25009KT 16/15 A2998 RMK A01 T01640147  RH  090%=      5-min Rain = 0
KWA1 111347Z 26009KT 17/15 A2998 RMK A01 T01650148  RH  089%=      5-min Rain = 0
KWA1 111348Z 26008KT 17/15 A2999 RMK A01 T01650148  RH  089%=      5-min Rain = 0
KWA1 111349Z 27009KT 17/15 A2999 RMK A01 T01660148  RH  089%=      5-min Rain = 0
KWA1 111350Z 27007KT 17/15 A2999 RMK A01 T01660148  RH  089%=      5-min Rain = 0
KWA1 111351Z 28007KT 17/15 A2999 RMK A01 T01660148  RH  089%=      5-min Rain = 0
KWA1 111352Z 29006KT 17/15 A30 RMK A01 T01660148  RH  089%=      5-min Rain = 0
KWA1 111353Z 29007KT 17/15 A30 RMK A01 T01660148  RH  089%=      5-min Rain = 0
KWA1 111354Z 30007KT 17/15 A30 RMK A01 T01660148  RH  089%=      5-min Rain = 0
KWA1 111355Z 30007KT 17/15 A30 RMK A01 T01660148  RH  089%=      5-min Rain = 0
KWA1 111356Z 31007KT 17/15 A3001 RMK A01 T01660149  RH  090%=      5-min Rain = 0
KWA1 111357Z 32008KT 17/15 A3001 RMK A01 T01660148  RH  089%=      5-min Rain = 0
KWA1 111358Z 33009KT 17/15 A3001 RMK A01 T01660149  RH  089%=      5-min Rain = 0
KWA1 111359Z 33008KT 17/15 A3001 RMK A01 T01660149  RH  089%=      5-min Rain = 0
KWA1 111400Z 33010KT 17/15 A3002 RMK A01 T01660149  RH  090%=      5-min Rain = 0
KWA1 111401Z 34010KT 17/15 A3002 RMK A01 T01660150  RH  090%=      5-min Rain = 0
KWA1 111402Z 34010KT 17/15 A3003 RMK A01 T01660150  RH  090%=      5-min Rain = 0
KWA1 111403Z 35011KT 17/15 A3003 RMK A01 T01660150  RH  090%=      5-min Rain = 0
KWA1 111404Z 35013KT 17/15 A3003 RMK A01 T01650149  RH  090%=      5-min Rain = 0
KWA1 111405Z 35012KT 17/15 A3003 RMK A01 T01650149  RH  090%=      5-min Rain = 0
KWA1 111406Z 34012KT 17/15 A3003 RMK A01 T01650148  RH  090%=      5-min Rain = 0
KWA1 111407Z 34012KT 16/15 A3003 RMK A01 T01640148  RH  090%=      5-min Rain = 0
KWA1 111408Z 34012KT 16/15 A3004 RMK A01 T01640148  RH  090%=      5-min Rain = 0
KWA1 111409Z 34011KT 16/15 A3004 RMK A01 T01640148  RH  090%=      5-min Rain = 0
KWA1 111410Z 35011KT 16/15 A3004 RMK A01 T01640149  RH  091%=      5-min Rain = 0
KWA1 111411Z 34011KT 16/15 A3004 RMK A01 T01640149  RH  090%=      5-min Rain = 0
KWA1 111412Z 34008KT 16/15 A3004 RMK A01 T01640149  RH  091%=      5-min Rain = 0
KWA1 111413Z 34010KT 16/15 A3004 RMK A01 T01640149  RH  090%=      5-min Rain = 0
KWA1 111414Z 35011KT 16/15 A3004 RMK A01 T01640148  RH  090%=      5-min Rain = 0
KWA1 111415Z 35011KT 17/15 A3004 RMK A01 T01650148  RH  090%=      5-min Rain = 0
KWA1 111416Z 34009KT 17/15 A3004 RMK A01 T01650148  RH  090%=      5-min Rain = 0
KWA1 111417Z 34012KT 17/15 A3004 RMK A01 T01650148  RH  090%=      5-min Rain = 0
KWA1 111418Z 34010KT 17/15 A3004 RMK A01 T01660149  RH  090%=      5-min Rain = 0
KWA1 111419Z 33012KT 17/15 A3004 RMK A01 T01650148  RH  089%=      5-min Rain = 0
KWA1 111420Z 33010KT 17/15 A3005 RMK A01 T01660148  RH  089%=      5-min Rain = 0
KWA1 111421Z 34013KT 17/15 A3005 RMK A01 T01660148  RH  089%=      5-min Rain = 0
KWA1 111422Z 34010KT 17/15 A3005 RMK A01 T01660148  RH  089%=      5-min Rain = 0
KWA1 111423Z 34010KT 17/15 A3005 RMK A01 T01660148  RH  089%=      5-min Rain = 0
KWA1 111424Z 33008KT 17/15 A3005 RMK A01 T01660148  RH  089%=      5-min Rain = 0
KWA1 111425Z 33007KT 17/15 A3005 RMK A01 T01660148  RH  089%=      5-min Rain = 0
KWA1 111426Z 33008KT 17/15 A3005 RMK A01 T01670149  RH  089%=      5-min Rain = 0
KWA1 111427Z 33009KT 17/15 A3005 RMK A01 T01670148  RH  089%=      5-min Rain = 0
KWA1 111428Z 33009KT 17/15 A3005 RMK A01 T01670148  RH  089%=      5-min Rain = 0
KWA1 111429Z 33009KT 17/15 A3006 RMK A01 T01680149  RH  088%=      5-min Rain = 0
KWA1 111430Z 33009KT 17/15 A3006 RMK A01 T01680149  RH  088%=      5-min Rain = 0
KWA1 111431Z 33011KT 17/15 A3006 RMK A01 T01690149  RH  088%=      5-min Rain = 0
KWA1 111432Z 33011KT 17/15 A3006 RMK A01 T01690148  RH  088%=      5-min Rain = 0
KWA1 111433Z 33012KT 17/15 A3006 RMK A01 T01690148  RH  088%=      5-min Rain = 0
KWA1 111434Z 32010KT 17/15 A3006 RMK A01 T01690148  RH  087%=      5-min Rain = 0
KWA1 111435Z 32011KT 17/15 A3006 RMK A01 T01690148  RH  087%=      5-min Rain = 0
KWA1 111436Z 32009KT 17/15 A3006 RMK A01 T01690148  RH  087%=      5-min Rain = 0
KWA1 111437Z 32008KT 17/15 A3007 RMK A01 T01700149  RH  088%=      5-min Rain = 0
KWA1 111438Z 32008KT 17/15 A3007 RMK A01 T01700149  RH  087%=      5-min Rain = 0
KWA1 111439Z 32008KT 17/15 A3007 RMK A01 T01700149  RH  087%=      5-min Rain = 0
KWA1 111440Z 32009KT 17/15 A3007 RMK A01 T01710149  RH  087%=      5-min Rain = 0
KWA1 111441Z 32008KT 17/15 A3007 RMK A01 T01710149  RH  087%=      5-min Rain = 0
KWA1 111442Z 32008KT 17/15 A3007 RMK A01 T01710149  RH  087%=      5-min Rain = 0
KWA1 111443Z 32009KT 17/15 A3007 RMK A01 T01720149  RH  086%=      5-min Rain = 0
KWA1 111444Z 33008KT 17/15 A3007 RMK A01 T01720149  RH  086%=      5-min Rain = 0
KWA1 111445Z 33009KT 17/15 A3007 RMK A01 T01720149  RH  086%=      5-min Rain = 0
KWA1 111446Z 33009KT 17/15 A3007 RMK A01 T01730150  RH  086%=      5-min Rain = 0
KWA1 111447Z 33010KT 17/15 A3007 RMK A01 T01730150  RH  086%=      5-min Rain = 0
KWA1 111448Z 33008KT 17/15 A3007 RMK A01 T01730150  RH  086%=      5-min Rain = 0
KWA1 111449Z 33009KT 17/15 A3007 RMK A01 T01730150  RH  086%=      5-min Rain = 0
KWA1 111450Z 33009KT 17/15 A3007 RMK A01 T01740151  RH  086%=      5-min Rain = 0
KWA1 111451Z 33009KT 17/15 A3007 RMK A01 T01740150  RH  086%=      5-min Rain = 0
KWA1 111452Z 34008KT 17/15 A3007 RMK A01 T01740150  RH  086%=      5-min Rain = 0
KWA1 111453Z 33010KT 17/15 A3007 RMK A01 T01740150  RH  086%=      5-min Rain = 0
KWA1 111454Z 33009KT 18/15 A3007 RMK A01 T01750150  RH  085%=      5-min Rain = 0
KWA1 111455Z 34009KT 18/15 A3007 RMK A01 T01750150  RH  086%=      5-min Rain = 0
KWA1 111456Z 34008KT 18/15 A3007 RMK A01 T01750150  RH  085%=      5-min Rain = 0
KWA1 111457Z 33009KT 18/15 A3007 RMK A01 T01750150  RH  085%=      5-min Rain = 0
KWA1 111458Z 33009KT 18/15 A3007 RMK A01 T01760150  RH  085%=      5-min Rain = 0
KWA1 111459Z 34009KT 18/15 A3008 RMK A01 T01760151  RH  085%=      5-min Rain = 0
KWA1 111500Z 34009KT 18/15 A3008 RMK A01 T01770151  RH  085%=      5-min Rain = 0
KWA1 111501Z 33010KT 18/15 A3008 RMK A01 T01770151  RH  085%=      5-min Rain = 0
KWA1 111502Z 33011KT 18/15 A3008 RMK A01 T01770150  RH  084%=      5-min Rain = 0
KWA1 111503Z 34009KT 18/15 A3008 RMK A01 T01770150  RH  084%=      5-min Rain = 0
KWA1 111504Z 34010KT 18/15 A3008 RMK A01 T01780151  RH  084%=      5-min Rain = 0
KWA1 111505Z 35009KT 18/15 A3009 RMK A01 T01780150  RH  084%=      5-min Rain = 0
KWA1 111506Z 35008KT 18/15 A3009 RMK A01 T01770150  RH  084%=      5-min Rain = 0
KWA1 111507Z 35008KT 18/15 A3009 RMK A01 T01770151  RH  084%=      5-min Rain = 0
KWA1 111508Z 35008KT 18/15 A3009 RMK A01 T01770151  RH  084%=      5-min Rain = 0
KWA1 111509Z 34009KT 18/15 A3009 RMK A01 T01770150  RH  084%=      5-min Rain = 0
KWA1 111510Z 35010KT 18/15 A3009 RMK A01 T01770150  RH  084%=      5-min Rain = 0
KWA1 111511Z 35010KT 18/15 A3009 RMK A01 T01770150  RH  084%=      5-min Rain = 0
KWA1 111512Z 36009KT 18/15 A3009 RMK A01 T01760150  RH  084%=      5-min Rain = 0
KWA1 111513Z 01013G22KT 18/15 A301 RMK A01 T01770150  RH  085%=      5-min Rain = 0
KWA1 111514Z 02024G32KT 17/13 A3011 RMK A01 T01730131  RH  076%=      5-min Rain = 0
KWA1 111515Z 02021KT 16/11 A3012 RMK A01 T01580110  RH  073%=      5-min Rain = 0
KWA1 111516Z 02023KT 15/11 A3012 RMK A01 T01500107  RH  075%=      5-min Rain = 0
KWA1 111517Z 02019G25KT 15/11 A3012 RMK A01 T01460106  RH  077%=      5-min Rain = 0
KWA1 111518Z 03019G24KT 14/11 A3012 RMK A01 T01440108  RH  079%=      5-min Rain = 0
KWA1 111519Z 03020KT 14/11 A3012 RMK A01 T01430107  RH  079%=      5-min Rain = 0
KWA1 111520Z 03020KT 14/11 A3012 RMK A01 T01410107  RH  080%=      5-min Rain = 0
KWA1 111521Z 02019KT 14/11 A3012 RMK A01 T01410107  RH  080%=      5-min Rain = 0
KWA1 111522Z 03017KT 14/11 A3012 RMK A01 T01400107  RH  081%=      5-min Rain = 0
KWA1 111523Z 02021KT 14/11 A3012 RMK A01 T01390107  RH  081%=      5-min Rain = 0
KWA1 111524Z 03018G24KT 14/11 A3012 RMK A01 T01390107  RH  081%=      5-min Rain = 0
KWA1 111525Z 02019G24KT 14/11 A3013 RMK A01 T01390107  RH  081%=      5-min Rain = 0
KWA1 111526Z 03025G30KT 14/11 A3013 RMK A01 T01380106  RH  081%=      5-min Rain = 0
KWA1 111527Z 02025KT 14/11 A3013 RMK A01 T01360105  RH  082%=      5-min Rain = 0
KWA1 111528Z 02024KT 13/11 A3013 RMK A01 T01340105  RH  083%=      5-min Rain = 0
KWA1 111529Z 02021G27KT 13/11 A3013 RMK A01 T01330105  RH  083%=      5-min Rain = 0
KWA1 111530Z 03023KT 13/10 A3014 RMK A01 T01310103  RH  083%=      5-min Rain = 0
KWA1 111531Z 02022G27KT 13/10 A3014 RMK A01 T01280102  RH  084%=      5-min Rain = 0
KWA1 111532Z 02022KT 13/10 A3014 RMK A01 T01260102  RH  085%=      5-min Rain = 0
KWA1 111533Z 02027KT 12/10 A3015 RMK A01 T01240100  RH  085%=      5-min Rain = 0
KWA1 111534Z 02025KT 12/10 A3015 RMK A01 T01210097  RH  085%=      5-min Rain = 0
KWA1 111535Z 02023G29KT 12/10 A3015 RMK A01 T01200097  RH  086%=      5-min Rain = 0
KWA1 111536Z 02024G32KT 12/10 A3015 RMK A01 T01180096  RH  086%=      5-min Rain = 0
KWA1 111537Z 02025G30KT 12/09 A3016 RMK A01 T01150092  RH  086%=      5-min Rain = 0
KWA1 111538Z 02028KT 11/09 A3016 RMK A01 T01130090  RH  086%=      5-min Rain = 0
KWA1 111539Z 03024KT 11/09 A3016 RMK A01 T01100087  RH  086%=      5-min Rain = 0
KWA1 111540Z 03025KT 11/09 A3016 RMK A01 T01080086  RH  086%=      5-min Rain = 0
KWA1 111541Z 02025G31KT 11/08 A3016 RMK A01 T01060083  RH  086%=      5-min Rain = 0
KWA1 111542Z 02028KT 10/08 A3016 RMK A01 T01030080  RH  086%=      5-min Rain = 0
KWA1 111543Z 03028KT 10/08 A3017 RMK A01 T01010078  RH  086%=      5-min Rain = 0
KWA1 111544Z 02027G32KT 10/08 A3017 RMK A01 T01000078  RH  086%=      5-min Rain = 0
KWA1 111545Z 02027KT 10/08 A3017 RMK A01 T00980077  RH  087%=      5-min Rain = 0
KWA1 111546Z 02027KT 10/08 A3017 RMK A01 T00980077  RH  087%=      5-min Rain = 0
KWA1 111547Z 03026KT 10/08 A3017 RMK A01 T00970076  RH  087%=      5-min Rain = 0
KWA1 111548Z 02022G27KT 10/08 A3017 RMK A01 T00970076  RH  087%=      5-min Rain = 0
KWA1 111549Z 02024G31KT 10/08 A3017 RMK A01 T00960076  RH  087%=      5-min Rain = 0
KWA1 111550Z 02026G31KT 10/07 A3017 RMK A01 T00960074  RH  086%=      5-min Rain = 0
KWA1 111551Z 02027KT 10/07 A3018 RMK A01 T00950071  RH  085%=      5-min Rain = 0
KWA1 111552Z 02023G29KT 09/07 A3018 RMK A01 T00940071  RH  086%=      5-min Rain = 0
KWA1 111553Z 02025G31KT 09/07 A3018 RMK A01 T00940071  RH  086%=      5-min Rain = 0
KWA1 111554Z 02027KT 09/07 A3018 RMK A01 T00930070  RH  085%=      5-min Rain = 0
KWA1 111555Z 02027KT 09/07 A3018 RMK A01 T00920069  RH  086%=      5-min Rain = 0
KWA1 111556Z 02022G29KT 09/07 A3018 RMK A01 T00920070  RH  086%=      5-min Rain = 0
KWA1 111557Z 02026KT 09/07 A3018 RMK A01 T00910069  RH  086%=      5-min Rain = 0
KWA1 111558Z 02026KT 09/07 A3018 RMK A01 T00900067  RH  086%=      5-min Rain = 0
KWA1 111559Z 02026G31KT 09/07 A3018 RMK A01 T00900068  RH  086%=      5-min Rain = 0
KWA1 111600Z 03026G33KT 09/07 A3018 RMK A01 T00890067  RH  086%=      5-min Rain = 0
KWA1 111601Z 02024KT 09/07 A3018 RMK A01 T00890067  RH  086%=      5-min Rain = 0
KWA1 111602Z 02024G30KT 09/07 A3019 RMK A01 T00890067  RH  086%=      5-min Rain = 0
KWA1 111603Z 02024G29KT 09/07 A3019 RMK A01 T00880066  RH  086%=      5-min Rain = 0
KWA1 111604Z 02021G27KT 09/07 A3019 RMK A01 T00880066  RH  086%=      5-min Rain = 0
KWA1 111605Z 03021G26KT 09/07 A3019 RMK A01 T00880067  RH  087%=      5-min Rain = 0
KWA1 111606Z 02021G26KT 09/07 A302 RMK A01 T00880066  RH  087%=      5-min Rain = 0
KWA1 111607Z 02025KT 09/07 A302 RMK A01 T00870065  RH  086%=      5-min Rain = 0
KWA1 111608Z 02021KT 09/07 A302 RMK A01 T00870065  RH  086%=      5-min Rain = 0
KWA1 111609Z 02022G28KT 09/07 A302 RMK A01 T00870066  RH  087%=      5-min Rain = 0
KWA1 111610Z 02024G29KT 09/07 A302 RMK A01 T00870065  RH  086%=      5-min Rain = 0
KWA1 111611Z 02021KT 09/07 A302 RMK A01 T00870065  RH  086%=      5-min Rain = 0
KWA1 111612Z 02021G26KT 09/07 A302 RMK A01 T00870065  RH  086%=      5-min Rain = 0
KWA1 111613Z 01022G32KT 09/07 A3021 RMK A01 T00870065  RH  086%=      5-min Rain = 0
KWA1 111614Z 01024KT 09/06 A3021 RMK A01 T00860059  RH  083%=      5-min Rain = 0
KWA1 111615Z 01025KT 08/05 A3021 RMK A01 T00840054  RH  081%=      5-min Rain = 0
KWA1 111616Z 01025G30KT 08/05 A3021 RMK A01 T00810050  RH  081%=      5-min Rain = 0
KWA1 111617Z 01028KT 08/05 A3021 RMK A01 T00790048  RH  081%=      5-min Rain = 0
KWA1 111618Z 00027G33KT 08/05 A3021 RMK A01 T00770047  RH  081%=      5-min Rain = 0
KWA1 111619Z 01026KT 08/05 A3021 RMK A01 T00760046  RH  081%=      5-min Rain = 0
KWA1 111620Z 01025G32KT 08/05 A3021 RMK A01 T00750046  RH  082%=      5-min Rain = 0
KWA1 111621Z 01026KT 07/05 A3021 RMK A01 T00740045  RH  082%=      5-min Rain = 0
KWA1 111622Z 01028G33KT 07/05 A3022 RMK A01 T00730045  RH  082%=      5-min Rain = 0
KWA1 111623Z 01027G32KT 07/04 A3022 RMK A01 T00720044  RH  082%=      5-min Rain = 0
KWA1 111624Z 02028KT 07/04 A3022 RMK A01 T00710042  RH  082%=      5-min Rain = 0
KWA1 111625Z 02025G30KT 07/04 A3022 RMK A01 T00690040  RH  082%=      5-min Rain = 0
KWA1 111626Z 02026G32KT 07/04 A3022 RMK A01 T00690040  RH  082%=      5-min Rain = 0
KWA1 111627Z 02026KT 07/04 A3022 RMK A01 T00680038  RH  081%=      5-min Rain = 0
KWA1 111628Z 02023G29KT 07/04 A3022 RMK A01 T00660037  RH  082%=      5-min Rain = 0
KWA1 111629Z 02027KT 07/04 A3022 RMK A01 T00660037  RH  082%=      5-min Rain = 0
KWA1 111630Z 02025G31KT 07/04 A3022 RMK A01 T00650035  RH  081%=      5-min Rain = 0
KWA1 111631Z 02027KT 07/04 A3022 RMK A01 T00650035  RH  081%=      5-min Rain = 0
KWA1 111632Z 02029G34KT 06/03 A3022 RMK A01 T00640034  RH  081%=      5-min Rain = 0
KWA1 111633Z 01027G32KT 06/03 A3022 RMK A01 T00630034  RH  081%=      5-min Rain = 0
KWA1 111634Z 02025G31KT 06/03 A3022 RMK A01 T00630033  RH  082%=      5-min Rain = 0
KWA1 111635Z 02026G31KT 06/03 A3022 RMK A01 T00630034  RH  082%=      5-min Rain = 0
KWA1 111636Z 02027G32KT 06/03 A3023 RMK A01 T00620034  RH  082%=      5-min Rain = 0
KWA1 111637Z 02025G31KT 06/03 A3023 RMK A01 T00620033  RH  082%=      5-min Rain = 0
KWA1 111638Z 02025G30KT 06/03 A3023 RMK A01 T00610033  RH  082%=      5-min Rain = 0
KWA1 111639Z 02026KT 06/03 A3023 RMK A01 T00610034  RH  082%=      5-min Rain = 0
KWA1 111640Z 01022KT 06/03 A3023 RMK A01 T00610033  RH  082%=      5-min Rain = 0
KWA1 111641Z 02024KT 06/03 A3023 RMK A01 T00610033  RH  083%=      5-min Rain = 0
KWA1 111642Z 02021G26KT 06/03 A3023 RMK A01 T00600032  RH  082%=      5-min Rain = 0
KWA1 111643Z 02023G28KT 06/03 A3023 RMK A01 T00600032  RH  082%=      5-min Rain = 0
KWA1 111644Z 02023KT 06/03 A3023 RMK A01 T00600030  RH  081%=      5-min Rain = 0
KWA1 111645Z 02022KT 06/03 A3023 RMK A01 T00600031  RH  082%=      5-min Rain = 0
KWA1 111646Z 02021KT 06/03 A3023 RMK A01 T00600030  RH  081%=      5-min Rain = 0
KWA1 111647Z 02021KT 06/03 A3023 RMK A01 T00590030  RH  081%=      5-min Rain = 0
KWA1 111648Z 02021KT 06/03 A3024 RMK A01 T00590030  RH  081%=      5-min Rain = 0
KWA1 111649Z 02021KT 06/03 A3024 RMK A01 T00590029  RH  081%=      5-min Rain = 0
KWA1 111650Z 03021G26KT 06/03 A3024 RMK A01 T00580029  RH  082%=      5-min Rain = 0
KWA1 111651Z 02021G26KT 06/03 A3024 RMK A01 T00580029  RH  082%=      5-min Rain = 0
KWA1 111652Z 02020KT 06/03 A3024 RMK A01 T00580030  RH  082%=      5-min Rain = 0
KWA1 111653Z 02018KT 06/03 A3024 RMK A01 T00570029  RH  082%=      5-min Rain = 0
KWA1 111654Z 02018G23KT 06/03 A3024 RMK A01 T00570030  RH  083%=      5-min Rain = 0
KWA1 111655Z 03020G25KT 06/03 A3024 RMK A01 T00570030  RH  083%=      5-min Rain = 0
KWA1 111656Z 03022KT 06/03 A3025 RMK A01 T00570030  RH  083%=      5-min Rain = 0
KWA1 111657Z 02019KT 06/03 A3024 RMK A01 T00560030  RH  083%=      5-min Rain = 0
KWA1 111658Z 02017KT 06/03 A3024 RMK A01 T00560031  RH  084%=      5-min Rain = 0
KWA1 111659Z 01020G25KT 06/03 A3025 RMK A01 T00570031  RH  084%=      5-min Rain = 0
KWA1 111700Z 01024KT 06/03 A3025 RMK A01 T00570030  RH  083%=      5-min Rain = 0
KWA1 111701Z 01026KT 06/03 A3025 RMK A01 T00550028  RH  082%=      5-min Rain = 0
KWA1 111702Z 01023KT 05/03 A3026 RMK A01 T00540026  RH  082%=      5-min Rain = 0
KWA1 111703Z 01020G25KT 05/03 A3026 RMK A01 T00530025  RH  082%=      5-min Rain = 0
KWA1 111704Z 01026KT 05/03 A3026 RMK A01 T00530025  RH  083%=      5-min Rain = 0
KWA1 111705Z 01022G27KT 05/02 A3026 RMK A01 T00520024  RH  082%=      5-min Rain = 0
KWA1 111706Z 01025KT 05/02 A3026 RMK A01 T00520023  RH  082%=      5-min Rain = 0
KWA1 111707Z 01022KT 05/02 A3027 RMK A01 T00510021  RH  081%=      5-min Rain = 0
KWA1 111708Z 01025KT 05/02 A3027 RMK A01 T00500021  RH  081%=      5-min Rain = 0
KWA1 111709Z 01027KT 05/02 A3027 RMK A01 T00500020  RH  081%=      5-min Rain = 0
KWA1 111710Z 02024KT 05/02 A3028 RMK A01 T00490020  RH  081%=      5-min Rain = 0
KWA1 111711Z 02019KT 05/02 A3028 RMK A01 T00490020  RH  082%=      5-min Rain = 0
KWA1 111712Z 02021KT 05/02 A3028 RMK A01 T00500021  RH  082%=      5-min Rain = 0
KWA1 111713Z 02019G27KT 05/02 A3028 RMK A01 T00490020  RH  082%=      5-min Rain = 0
KWA1 111714Z 01022KT 05/02 A3028 RMK A01 T00490021  RH  082%=      5-min Rain = 0
KWA1 111715Z 02023KT 05/02 A3028 RMK A01 T00490020  RH  081%=      5-min Rain = 0
KWA1 111716Z 01020KT 05/02 A3028 RMK A01 T00490019  RH  081%=      5-min Rain = 0
KWA1 111717Z 01022KT 05/02 A3028 RMK A01 T00490019  RH  081%=      5-min Rain = 0
KWA1 111718Z 02021G26KT 05/02 A3028 RMK A01 T00490019  RH  081%=      5-min Rain = 0
KWA1 111719Z 02021KT 05/02 A3028 RMK A01 T00490020  RH  081%=      5-min Rain = 0
KWA1 111720Z 01021KT 05/02 A3029 RMK A01 T00490018  RH  081%=      5-min Rain = 0
KWA1 111721Z 01023G29KT 05/02 A3029 RMK A01 T00490017  RH  080%=      5-min Rain = 0
KWA1 111722Z 02021KT 05/02 A3029 RMK A01 T00480016  RH  080%=      5-min Rain = 0
KWA1 111723Z 01019KT 05/02 A3029 RMK A01 T00480017  RH  080%=      5-min Rain = 0
KWA1 111724Z 01019KT 05/02 A3029 RMK A01 T00480018  RH  081%=      5-min Rain = 0
KWA1 111725Z 01019KT 05/02 A303 RMK A01 T00480018  RH  080%=      5-min Rain = 0
KWA1 111726Z 01019G24KT 05/02 A303 RMK A01 T00480017  RH  080%=      5-min Rain = 0
KWA1 111727Z 01020KT 05/02 A303 RMK A01 T00480017  RH  080%=      5-min Rain = 0
KWA1 111728Z 01024KT 05/02 A303 RMK A01 T00470016  RH  080%=      5-min Rain = 0
KWA1 111729Z 01022G27KT 05/02 A303 RMK A01 T00460016  RH  080%=      5-min Rain = 0
KWA1 111730Z 01022KT 05/02 A303 RMK A01 T00460016  RH  081%=      5-min Rain = 0
KWA1 111731Z 01020G25KT 05/02 A303 RMK A01 T00460016  RH  081%=      5-min Rain = 0
KWA1 111732Z 01022G28KT 05/02 A303 RMK A01 T00460016  RH  081%=      5-min Rain = 0
KWA1 111733Z 01025KT 05/02 A303 RMK A01 T00460015  RH  081%=      5-min Rain = 0
KWA1 111734Z 01021G26KT 05/01 A303 RMK A01 T00450014  RH  080%=      5-min Rain = 0
KWA1 111735Z 01021KT 05/01 A303 RMK A01 T00450014  RH  081%=      5-min Rain = 0
KWA1 111736Z 01023G28KT 05/02 A303 RMK A01 T00450015  RH  081%=      5-min Rain = 0
KWA1 111737Z 01021KT 04/01 A303 RMK A01 T00440014  RH  081%=      5-min Rain = 0
KWA1 111738Z 01019KT 04/01 A303 RMK A01 T00430014  RH  081%=      5-min Rain = 0
KWA1 111739Z 01021KT 04/02 A303 RMK A01 T00430015  RH  082%=      5-min Rain = 0
KWA1 111740Z 01021KT 04/01 A303 RMK A01 T00430014  RH  082%=      5-min Rain = 0
KWA1 111741Z 01018G26KT 04/02 A303 RMK A01 T00430015  RH  082%=      5-min Rain = 0
KWA1 111742Z 01024KT 04/02 A3031 RMK A01 T00430015  RH  082%=      5-min Rain = 0
KWA1 111743Z 01027KT 04/01 A3031 RMK A01 T00420013  RH  081%=      5-min Rain = 0
KWA1 111744Z 02026KT 04/01 A3031 RMK A01 T00410011  RH  081%=      5-min Rain = 0
KWA1 111745Z 01028KT 04/01 A3031 RMK A01 T00400011  RH  081%=      5-min Rain = 0
KWA1 111746Z 02024G29KT 04/01 A3031 RMK A01 T00390010  RH  081%=      5-min Rain = 0
KWA1 111747Z 01022KT 04/01 A3031 RMK A01 T00380010  RH  082%=      5-min Rain = 0
KWA1 111748Z 01023KT 04/01 A3031 RMK A01 T00380010  RH  082%=      5-min Rain = 0
KWA1 111749Z 01019KT 04/01 A3031 RMK A01 T00380010  RH  082%=      5-min Rain = 0
KWA1 111750Z 02019G25KT 04/01 A3031 RMK A01 T00380010  RH  082%=      5-min Rain = 0
KWA1 111751Z 02023KT 04/01 A3031 RMK A01 T00380009  RH  081%=      5-min Rain = 0
KWA1 111752Z 02023KT 04/01 A3031 RMK A01 T00370006  RH  080%=      5-min Rain = 0
KWA1 111753Z 03020G25KT 04/01 A3031 RMK A01 T00370005  RH  079%=      5-min Rain = 0
KWA1 111754Z 02023G30KT 04/01 A3031 RMK A01 T00370006  RH  080%=      5-min Rain = 0
KWA1 111755Z 02025KT 04/01 A3031 RMK A01 T00370005  RH  080%=      5-min Rain = 0
KWA1 111756Z 02024KT 04/00 A3031 RMK A01 T00350004  RH  080%=      5-min Rain = 0
KWA1 111757Z 02020G25KT 04/00 A3031 RMK A01 T00350004  RH  081%=      5-min Rain = 0
KWA1 111758Z 02020G25KT 04/01 A3031 RMK A01 T00350005  RH  081%=      5-min Rain = 0
KWA1 111759Z 02022KT 04/01 A3031 RMK A01 T00350007  RH  081%=      5-min Rain = 0
KWA1 111800Z 01025KT 04/01 A3031 RMK A01 T00360006  RH  081%=      5-min Rain = 0
KWA1 111801Z 01022G29KT 04/01 A3031 RMK A01 T00350005  RH  081%=      5-min Rain = 0
KWA1 111802Z 02024KT 04/01 A3031 RMK A01 T00350005  RH  081%=      5-min Rain = 0
KWA1 111803Z 01024KT 04/00 A3031 RMK A01 T00350004  RH  081%=      5-min Rain = 0
KWA1 111804Z 01022KT 03/00 A3031 RMK A01 T00340004  RH  081%=      5-min Rain = 0
KWA1 111805Z 02026G32KT 03/00 A3031 RMK A01 T00340004  RH  080%=      5-min Rain = 0
KWA1 111806Z 02021G26KT 03/00 A3031 RMK A01 T00340003  RH  081%=      5-min Rain = 0
KWA1 111807Z 02020G26KT 03/01 A3031 RMK A01 T00340005  RH  081%=      5-min Rain = 0
KWA1 111808Z 01023KT 03/00 A3031 RMK A01 T00340004  RH  081%=      5-min Rain = 0
KWA1 111809Z 02022G27KT 03/01 A3031 RMK A01 T00340005  RH  081%=      5-min Rain = 0
KWA1 111810Z 02024KT 03/00 A3031 RMK A01 T00340004  RH  081%=      5-min Rain = 0
KWA1 111811Z 02022G29KT 03/01 A3031 RMK A01 T00330005  RH  082%=      5-min Rain = 0
KWA1 111812Z 01023KT 03/00 A3031 RMK A01 T00330004  RH  082%=      5-min Rain = 0
KWA1 111813Z 02024KT 03/00 A3031 RMK A01 T00320004  RH  082%=      5-min Rain = 0
KWA1 111814Z 02022KT 03/01 A3031 RMK A01 T00320005  RH  082%=      5-min Rain = 0
KWA1 111815Z 02021KT 03/01 A3031 RMK A01 T00320005  RH  083%=      5-min Rain = 0
KWA1 111816Z 02022KT 03/01 A3031 RMK A01 T00320005  RH  083%=      5-min Rain = 0
KWA1 111817Z 02018KT 03/01 A3031 RMK A01 T00320006  RH  083%=      5-min Rain = 0
KWA1 111818Z 02021KT 03/01 A3031 RMK A01 T00330007  RH  083%=      5-min Rain = 0
KWA1 111819Z 01019G24KT 03/01 A3031 RMK A01 T00330007  RH  083%=      5-min Rain = 0
KWA1 111820Z 01016KT 03/01 A3031 RMK A01 T00340010  RH  084%=      5-min Rain = 0
KWA1 111821Z 01020KT 04/01 A3031 RMK A01 T00350010  RH  084%=      5-min Rain = 0
KWA1 111822Z 01021KT 03/01 A3031 RMK A01 T00340008  RH  083%=      5-min Rain = 0
KWA1 111823Z 01018G24KT 03/01 A3031 RMK A01 T00330008  RH  083%=      5-min Rain = 0
KWA1 111824Z 01021KT 03/01 A3031 RMK A01 T00330009  RH  084%=      5-min Rain = 0
KWA1 111825Z 01021KT 03/01 A3031 RMK A01 T00330008  RH  084%=      5-min Rain = 0
KWA1 111826Z 00021KT 03/01 A3031 RMK A01 T00330008  RH  084%=      5-min Rain = 0
KWA1 111827Z 36021KT 03/01 A3031 RMK A01 T00330008  RH  084%=      5-min Rain = 0
KWA1 111828Z 36020KT 03/01 A3031 RMK A01 T00330008  RH  084%=      5-min Rain = 0
KWA1 111829Z 00017G22KT 03/01 A3031 RMK A01 T00330008  RH  084%=      5-min Rain = 0
KWA1 111830Z 00025KT 03/01 A3031 RMK A01 T00320007  RH  083%=      5-min Rain = 0
KWA1 111831Z 01022KT 03/01 A3031 RMK A01 T00310005  RH  083%=      5-min Rain = 0
KWA1 111832Z 01023KT 03/00 A3032 RMK A01 T00300003  RH  082%=      5-min Rain = 0
KWA1 111833Z 01022G28KT 03/00 A3031 RMK A01 T00300003  RH  082%=      5-min Rain = 0
KWA1 111834Z 01024KT 03/00 A3031 RMK A01 T00290002  RH  082%=      5-min Rain = 0
KWA1 111835Z 01025KT 03/00 A3031 RMK A01 T00280001  RH  082%=      5-min Rain = 0
KWA1 111836Z 01022KT 03/00 A3031 RMK A01 T00270000  RH  082%=      5-min Rain = 0
KWA1 111837Z 01021KT 03/00 A3031 RMK A01 T00270001  RH  083%=      5-min Rain = 0
KWA1 111838Z 01019G24KT 03/00 A3031 RMK A01 T00270002  RH  083%=      5-min Rain = 0
KWA1 111839Z 01021KT 03/00 A3031 RMK A01 T00270001  RH  083%=      5-min Rain = 0
KWA1 111840Z 01022G28KT 03/00 A3032 RMK A01 T00270001  RH  083%=      5-min Rain = 0
KWA1 111841Z 01022KT 03/00 A3032 RMK A01 T002700-0  RH  083%=      5-min Rain = 0
KWA1 111842Z 02023G28KT 03/00 A3032 RMK A01 T002700-0  RH  083%=      5-min Rain = 0
KWA1 111843Z 02024KT 03/M00 A3032 RMK A01 T00261002  RH  082%=      5-min Rain = 0
KWA1 111844Z 02023KT 02/M00 A3032 RMK A01 T00241004  RH  081%=      5-min Rain = 0
KWA1 111845Z 02021KT 02/M00 A3032 RMK A01 T00241004  RH  082%=      5-min Rain = 0
KWA1 111846Z 02018KT 02/M00 A3032 RMK A01 T00241003  RH  082%=      5-min Rain = 0
KWA1 111847Z 02021KT 02/M00 A3032 RMK A01 T00241001  RH  083%=      5-min Rain = 0
KWA1 111848Z 02019G25KT 02/M00 A3032 RMK A01 T00241003  RH  083%=      5-min Rain = 0
KWA1 111849Z 02021KT 02/M00 A3033 RMK A01 T00231002  RH  083%=      5-min Rain = 0
KWA1 111850Z 02022KT 02/M00 A3032 RMK A01 T00221004  RH  083%=      5-min Rain = 0
KWA1 111851Z 02019G24KT 02/M00 A3032 RMK A01 T00221003  RH  084%=      5-min Rain = 0
KWA1 111852Z 01020KT 02/M00 A3032 RMK A01 T00221002  RH  084%=      5-min Rain = 0
KWA1 111853Z 01019G26KT 02/M00 A3032 RMK A01 T00211002  RH  085%=      5-min Rain = 0
KWA1 111854Z 01022KT 02/M00 A3033 RMK A01 T00221001  RH  085%=      5-min Rain = 0
KWA1 111855Z 01023KT 02/00 A3033 RMK A01 T002200-0  RH  085%=      5-min Rain = 0
KWA1 111856Z 01018KT 02/00 A3033 RMK A01 T002200-0  RH  085%=      5-min Rain = 0
KWA1 111857Z 02022KT 02/00 A3033 RMK A01 T00220001  RH  086%=      5-min Rain = 0
KWA1 111858Z 01022KT 02/M00 A3033 RMK A01 T00211001  RH  085%=      5-min Rain = 0
KWA1 111859Z 02020KT 02/M00 A3033 RMK A01 T00201002  RH  085%=      5-min Rain = 0
KWA1 111900Z 02019G26KT 02/00 A3034 RMK A01 T002100-0  RH  086%=      5-min Rain = 0
KWA1 111901Z 02022KT 02/M00 A3034 RMK A01 T00201001  RH  086%=      5-min Rain = 0
KWA1 111902Z 02022KT 02/M00 A3034 RMK A01 T00201002  RH  086%=      5-min Rain = 0
KWA1 111903Z 02018KT 02/M00 A3034 RMK A01 T00191002  RH  086%=      5-min Rain = 0
KWA1 111904Z 02019KT 02/M00 A3034 RMK A01 T00201001  RH  086%=      5-min Rain = 0
KWA1 111905Z 02019KT 02/M00 A3034 RMK A01 T00191001  RH  087%=      5-min Rain = 0
KWA1 111906Z 02021KT 02/00 A3034 RMK A01 T00190000  RH  087%=      5-min Rain = 0
KWA1 111907Z 01024KT 02/M00 A3034 RMK A01 T00191001  RH  087%=      5-min Rain = 0
KWA1 111908Z 01018G23KT 02/M00 A3034 RMK A01 T00191002  RH  086%=      5-min Rain = 0
KWA1 111909Z 01022G27KT 02/00 A3034 RMK A01 T001900-0  RH  087%=      5-min Rain = 0
KWA1 111910Z 01023G28KT 02/M00 A3034 RMK A01 T00181003  RH  086%=      5-min Rain = 0
KWA1 111911Z 01024G29KT 02/M00 A3034 RMK A01 T00171004  RH  086%=      5-min Rain = 0
KWA1 111912Z 01023G29KT 02/M01 A3034 RMK A01 T00161005  RH  086%=      5-min Rain = 0
KWA1 111913Z 01021G26KT 02/M01 A3035 RMK A01 T00161005  RH  086%=      5-min Rain = 0
KWA1 111914Z 01023KT 02/M01 A3035 RMK A01 T00161005  RH  086%=      5-min Rain = 0
KWA1 111915Z 01022G27KT 02/M01 A3035 RMK A01 T00151007  RH  085%=      5-min Rain = 0
KWA1 111916Z 01021KT 02/M01 A3035 RMK A01 T00151007  RH  085%=      5-min Rain = 0
KWA1 111917Z 01024KT 02/M01 A3035 RMK A01 T00151008  RH  085%=      5-min Rain = 0
KWA1 111918Z 02021G26KT 02/M01 A3035 RMK A01 T00151009  RH  084%=      5-min Rain = 0
KWA1 111919Z 02021KT 02/M01 A3035 RMK A01 T00151008  RH  085%=      5-min Rain = 0
KWA1 111920Z 01017KT 02/M01 A3035 RMK A01 T00151007  RH  085%=      5-min Rain = 0
KWA1 111921Z 02019KT 02/M01 A3035 RMK A01 T00161006  RH  086%=      5-min Rain = 0
KWA1 111922Z 01021KT 02/M01 A3035 RMK A01 T00161007  RH  085%=      5-min Rain = 0
KWA1 111923Z 01024KT 02/M01 A3035 RMK A01 T00151009  RH  084%=      5-min Rain = 0
KWA1 111924Z 01020KT 02/M01 A3035 RMK A01 T00151010  RH  084%=      5-min Rain = 0
KWA1 111925Z 01022G27KT 02/M01 A3035 RMK A01 T00151008  RH  084%=      5-min Rain = 0
KWA1 111926Z 01023G28KT 02/M01 A3035 RMK A01 T00151010  RH  084%=      5-min Rain = 0
KWA1 111927Z 01022KT 02/M01 A3035 RMK A01 T00151009  RH  084%=      5-min Rain = 0
KWA1 111928Z 01023G29KT 02/M01 A3035 RMK A01 T00151009  RH  084%=      5-min Rain = 0
KWA1 111929Z 01022G30KT 02/M01 A3035 RMK A01 T00161011  RH  083%=      5-min Rain = 0
KWA1 111930Z 01020G26KT 02/M01 A3035 RMK A01 T00161010  RH  083%=      5-min Rain = 0
KWA1 111931Z 00019G24KT 02/M01 A3035 RMK A01 T00161009  RH  084%=      5-min Rain = 0
KWA1 111932Z 01019KT 02/M01 A3036 RMK A01 T00161008  RH  084%=      5-min Rain = 0
KWA1 111933Z 01019G27KT 02/M01 A3036 RMK A01 T00161008  RH  084%=      5-min Rain = 0
KWA1 111934Z 01024KT 02/M01 A3036 RMK A01 T00151011  RH  083%=      5-min Rain = 0
KWA1 111935Z 01019KT 01/M01 A3036 RMK A01 T00141013  RH  082%=      5-min Rain = 0
KWA1 111936Z 01020KT 01/M01 A3036 RMK A01 T00141012  RH  083%=      5-min Rain = 0
KWA1 111937Z 00020KT 01/M01 A3036 RMK A01 T00141013  RH  083%=      5-min Rain = 0
KWA1 111938Z 01018KT 01/M01 A3036 RMK A01 T00131012  RH  083%=      5-min Rain = 0
KWA1 111939Z 02016KT 01/M01 A3036 RMK A01 T00131011  RH  084%=      5-min Rain = 0
KWA1 111940Z 02022KT 01/M01 A3036 RMK A01 T00131011  RH  084%=      5-min Rain = 0
KWA1 111941Z 02020G25KT 01/M01 A3036 RMK A01 T00121014  RH  083%=      5-min Rain = 0
KWA1 111942Z 02022KT 01/M01 A3036 RMK A01 T00111013  RH  084%=      5-min Rain = 0
KWA1 111943Z 02021G26KT 01/M01 A3036 RMK A01 T00111014  RH  083%=      5-min Rain = 0
KWA1 111944Z 02019G24KT 01/M01 A3036 RMK A01 T00111012  RH  085%=      5-min Rain = 0.01
KWA1 111945Z 02018KT 01/M01 A3036 RMK A01 T00121012  RH  085%=      5-min Rain = 0
KWA1 111946Z 02019KT 01/M01 A3036 RMK A01 T00111012  RH  084%=      5-min Rain = 0
KWA1 111947Z 01017KT 01/M01 A3035 RMK A01 T00121013  RH  084%=      5-min Rain = 0
KWA1 111948Z 02018KT 01/M01 A3035 RMK A01 T00121012  RH  084%=      5-min Rain = 0
KWA1 111949Z 02019KT 01/M01 A3035 RMK A01 T00131011  RH  085%=      5-min Rain = 0
KWA1 111950Z 01019KT 01/M01 A3036 RMK A01 T00131012  RH  084%=      5-min Rain = 0
KWA1 111951Z 02017KT 01/M01 A3036 RMK A01 T00131011  RH  084%=      5-min Rain = 0
KWA1 111952Z 01018KT 01/M01 A3036 RMK A01 T00131011  RH  084%=      5-min Rain = 0
KWA1 111953Z 01016KT 01/M01 A3036 RMK A01 T00131010  RH  084%=      5-min Rain = 0
KWA1 111954Z 01018G23KT 01/M01 A3036 RMK A01 T00141009  RH  085%=      5-min Rain = 0
KWA1 111955Z 01024G29KT 01/M01 A3036 RMK A01 T00141010  RH  084%=      5-min Rain = 0
KWA1 111956Z 00024G29KT 01/M01 A3036 RMK A01 T00131012  RH  083%=      5-min Rain = 0
KWA1 111957Z 01023G29KT 01/M01 A3036 RMK A01 T00121012  RH  084%=      5-min Rain = 0
KWA1 111958Z 00022KT 01/M01 A3036 RMK A01 T00111013  RH  084%=      5-min Rain = 0
KWA1 111959Z 36022KT 01/M01 A3036 RMK A01 T00101013  RH  085%=      5-min Rain = 0
KWA1 112000Z 00021G26KT 01/M01 A3037 RMK A01 T00101012  RH  085%=      5-min Rain = 0
KWA1 112001Z 36023KT 01/M01 A3037 RMK A01 T00091013  RH  085%=      5-min Rain = 0
KWA1 112002Z 00023KT 01/M02 A3037 RMK A01 T00081015  RH  085%=      5-min Rain = 0
KWA1 112003Z 00025KT 01/M02 A3037 RMK A01 T00081016  RH  084%=      5-min Rain = 0
KWA1 112004Z 36023G28KT 01/M02 A3037 RMK A01 T00071017  RH  084%=      5-min Rain = 0
KWA1 112005Z 36022KT 01/M02 A3037 RMK A01 T00071016  RH  085%=      5-min Rain = 0
KWA1 112006Z 36022G27KT 01/M02 A3036 RMK A01 T00061016  RH  085%=      5-min Rain = 0
KWA1 112007Z 36023KT 01/M02 A3037 RMK A01 T00061017  RH  084%=      5-min Rain = 0
KWA1 112008Z 36020KT 01/M02 A3037 RMK A01 T00071018  RH  083%=      5-min Rain = 0
KWA1 112009Z 36021KT 01/M02 A3037 RMK A01 T00071017  RH  084%=      5-min Rain = 0
KWA1 112010Z 36019KT 01/M02 A3037 RMK A01 T00061017  RH  084%=      5-min Rain = 0
KWA1 112011Z 01021G26KT 01/M02 A3037 RMK A01 T00071016  RH  085%=      5-min Rain = 0
KWA1 112012Z 01021KT 01/M02 A3037 RMK A01 T00061017  RH  085%=      5-min Rain = 0
KWA1 112013Z 01020KT 01/M02 A3037 RMK A01 T00071016  RH  085%=      5-min Rain = 0
KWA1 112014Z 36018KT 01/M02 A3037 RMK A01 T00061017  RH  084%=      5-min Rain = 0
KWA1 112015Z 01020KT 01/M02 A3037 RMK A01 T00071016  RH  085%=      5-min Rain = 0
KWA1 112016Z 01021KT 01/M02 A3037 RMK A01 T00071017  RH  084%=      5-min Rain = 0.01
KWA1 112017Z 01022KT 01/M02 A3037 RMK A01 T00071019  RH  083%=      5-min Rain = 0
KWA1 112018Z 02023KT 01/M02 A3038 RMK A01 T00061021  RH  082%=      5-min Rain = 0
KWA1 112019Z 02021KT 01/M02 A3038 RMK A01 T00051022  RH  082%=      5-min Rain = 0
KWA1 112020Z 02022KT 01/M02 A3038 RMK A01 T00051021  RH  083%=      5-min Rain = 0
KWA1 112021Z 02018G24KT 01/M02 A3038 RMK A01 T00051022  RH  082%=      5-min Rain = 0
KWA1 112022Z 02019KT 00/M02 A3038 RMK A01 T00041020  RH  084%=      5-min Rain = 0
KWA1 112023Z 02021KT 01/M02 A3038 RMK A01 T00051020  RH  084%=      5-min Rain = 0
KWA1 112024Z 01022KT 01/M02 A3038 RMK A01 T00051021  RH  083%=      5-min Rain = 0
KWA1 112025Z 01019G26KT 01/M02 A3038 RMK A01 T00051019  RH  084%=      5-min Rain = 0
KWA1 112026Z 01020KT 01/M02 A3038 RMK A01 T00051020  RH  083%=      5-min Rain = 0
KWA1 112027Z 01021KT 01/M02 A3038 RMK A01 T00061019  RH  083%=      5-min Rain = 0
KWA1 112028Z 01019G25KT 01/M02 A3038 RMK A01 T00061020  RH  083%=      5-min Rain = 0
KWA1 112029Z 01020KT 01/M02 A3038 RMK A01 T00061019  RH  083%=      5-min Rain = 0
KWA1 112030Z 00023G30KT 01/M02 A3038 RMK A01 T00071019  RH  083%=      5-min Rain = 0
KWA1 112031Z 01023G29KT 01/M02 A3038 RMK A01 T00071021  RH  082%=      5-min Rain = 0
KWA1 112032Z 01021KT 01/M02 A3038 RMK A01 T00071020  RH  082%=      5-min Rain = 0
KWA1 112033Z 01021KT 01/M02 A3038 RMK A01 T00071020  RH  082%=      5-min Rain = 0
KWA1 112034Z 01023KT 01/M02 A3038 RMK A01 T00071021  RH  082%=      5-min Rain = 0
KWA1 112035Z 01018G23KT 01/M02 A3038 RMK A01 T00071020  RH  082%=      5-min Rain = 0
KWA1 112036Z 01019G24KT 01/M02 A3038 RMK A01 T00071018  RH  083%=      5-min Rain = 0
KWA1 112037Z 01022G27KT 01/M02 A3038 RMK A01 T00071020  RH  082%=      5-min Rain = 0
KWA1 112038Z 00020KT 01/M02 A3038 RMK A01 T00061024  RH  080%=      5-min Rain = 0
KWA1 112039Z 00017KT 01/M02 A3038 RMK A01 T00061022  RH  081%=      5-min Rain = 0
KWA1 112040Z 00020KT 01/M02 A3038 RMK A01 T00061021  RH  082%=      5-min Rain = 0
KWA1 112041Z 00021G26KT 01/M02 A3038 RMK A01 T00061022  RH  082%=      5-min Rain = 0
KWA1 112042Z 00022KT 01/M02 A3038 RMK A01 T00061022  RH  082%=      5-min Rain = 0
KWA1 112043Z 00021G26KT 01/M02 A3038 RMK A01 T00061024  RH  081%=      5-min Rain = 0
KWA1 112044Z 01024KT 01/M02 A3038 RMK A01 T00051024  RH  081%=      5-min Rain = 0
KWA1 112045Z 01024KT 01/M02 A3039 RMK A01 T00061023  RH  081%=      5-min Rain = 0
KWA1 112046Z 01025KT 01/M03 A3039 RMK A01 T00051025  RH  080%=      5-min Rain = 0
KWA1 112047Z 01022KT 01/M03 A3039 RMK A01 T00051025  RH  080%=      5-min Rain = 0
KWA1 112048Z 01022KT 00/M03 A3039 RMK A01 T00041025  RH  081%=      5-min Rain = 0
KWA1 112049Z 01023KT 00/M02 A3039 RMK A01 T00041023  RH  082%=      5-min Rain = 0
KWA1 112050Z 01023KT 00/M02 A3039 RMK A01 T00041024  RH  082%=      5-min Rain = 0
KWA1 112051Z 01021G27KT 00/M02 A3039 RMK A01 T00041024  RH  082%=      5-min Rain = 0
KWA1 112052Z 01025G31KT 00/M02 A3039 RMK A01 T00041024  RH  082%=      5-min Rain = 0
KWA1 112053Z 01025KT 00/M03 A3039 RMK A01 T00041026  RH  080%=      5-min Rain = 0
KWA1 112054Z 01025KT 00/M03 A3039 RMK A01 T00031027  RH  080%=      5-min Rain = 0
KWA1 112055Z 01019G25KT 00/M03 A3039 RMK A01 T00031026  RH  081%=      5-min Rain = 0
KWA1 112056Z 02020G27KT 00/M02 A3039 RMK A01 T00031023  RH  083%=      5-min Rain = 0
KWA1 112057Z 02021G27KT 00/M02 A3039 RMK A01 T00041023  RH  082%=      5-min Rain = 0
KWA1 112058Z 02022KT 00/M02 A3039 RMK A01 T00041024  RH  082%=      5-min Rain = 0
KWA1 112059Z 02023G28KT 00/M03 A3039 RMK A01 T00041025  RH  081%=      5-min Rain = 0
KWA1 112100Z 02020G26KT 00/M03 A3039 RMK A01 T00031026  RH  081%=      5-min Rain = 0
KWA1 112101Z 01022KT 00/M02 A3039 RMK A01 T00031024  RH  082%=      5-min Rain = 0
KWA1 112102Z 01020G25KT 00/M02 A3039 RMK A01 T00031024  RH  082%=      5-min Rain = 0
KWA1 112103Z 01018G23KT 00/M02 A3039 RMK A01 T00041023  RH  082%=      5-min Rain = 0
KWA1 112104Z 01020KT 00/M02 A3039 RMK A01 T00041022  RH  082%=      5-min Rain = 0
KWA1 112105Z 01021KT 01/M02 A3039 RMK A01 T00051023  RH  082%=      5-min Rain = 0
KWA1 112106Z 01020KT 00/M02 A3039 RMK A01 T00041024  RH  082%=      5-min Rain = 0
KWA1 112107Z 01018KT 00/M02 A3039 RMK A01 T00041023  RH  082%=      5-min Rain = 0
KWA1 112108Z 01020KT 01/M02 A3039 RMK A01 T00051022  RH  082%=      5-min Rain = 0
KWA1 112109Z 02021KT 01/M02 A3039 RMK A01 T00051023  RH  082%=      5-min Rain = 0
KWA1 112110Z 02017KT 01/M02 A3039 RMK A01 T00051023  RH  082%=      5-min Rain = 0
KWA1 112111Z 01015KT 01/M02 A3039 RMK A01 T00051020  RH  083%=      5-min Rain = 0
KWA1 112112Z 01019KT 01/M02 A3039 RMK A01 T00061018  RH  084%=      5-min Rain = 0
KWA1 112113Z 00021G26KT 01/M02 A3039 RMK A01 T00061020  RH  083%=      5-min Rain = 0
KWA1 112114Z 01022KT 01/M02 A3039 RMK A01 T00051023  RH  082%=      5-min Rain = 0
KWA1 112115Z 01022KT 01/M03 A3039 RMK A01 T00051025  RH  081%=      5-min Rain = 0
KWA1 112116Z 01021KT 00/M03 A3039 RMK A01 T00041026  RH  081%=      5-min Rain = 0
KWA1 112117Z 00020G26KT 00/M03 A3039 RMK A01 T00031025  RH  082%=      5-min Rain = 0
KWA1 112118Z 01022KT 00/M03 A3039 RMK A01 T00031025  RH  082%=      5-min Rain = 0
KWA1 112119Z 01019KT 00/M02 A3039 RMK A01 T00031024  RH  082%=      5-min Rain = 0
KWA1 112120Z 01018G25KT 00/M02 A3039 RMK A01 T00031024  RH  082%=      5-min Rain = 0
KWA1 112121Z 01020G25KT 00/M02 A3039 RMK A01 T00041021  RH  083%=      5-min Rain = 0
KWA1 112122Z 01021G29KT 00/M02 A3039 RMK A01 T00041023  RH  082%=      5-min Rain = 0
KWA1 112123Z 01023G29KT 00/M02 A304 RMK A01 T00041024  RH  082%=      5-min Rain = 0
KWA1 112124Z 01026KT 00/M03 A304 RMK A01 T00041025  RH  081%=      5-min Rain = 0
KWA1 112125Z 01021KT 00/M03 A304 RMK A01 T00031026  RH  081%=      5-min Rain = 0
KWA1 112126Z 01021G27KT 00/M03 A3039 RMK A01 T00031025  RH  081%=      5-min Rain = 0
KWA1 112127Z 01020KT 00/M02 A3039 RMK A01 T00031024  RH  082%=      5-min Rain = 0
KWA1 112128Z 01021G26KT 00/M02 A3039 RMK A01 T00031024  RH  082%=      5-min Rain = 0
KWA1 112129Z 01022G27KT 00/M03 A3039 RMK A01 T00031025  RH  082%=      5-min Rain = 0
KWA1 112130Z 01021KT 00/M02 A3039 RMK A01 T00031024  RH  082%=      5-min Rain = 0
KWA1 112131Z 01021G26KT 00/M02 A3039 RMK A01 T00031024  RH  082%=      5-min Rain = 0
KWA1 112132Z 01019KT 00/M03 A304 RMK A01 T00031025  RH  082%=      5-min Rain = 0
KWA1 112133Z 01021G26KT 00/M02 A304 RMK A01 T00031024  RH  082%=      5-min Rain = 0
KWA1 112134Z 01019KT 00/M02 A304 RMK A01 T00031024  RH  082%=      5-min Rain = 0
KWA1 112135Z 01021KT 00/M02 A304 RMK A01 T00031024  RH  082%=      5-min Rain = 0
KWA1 112136Z 00019KT 00/M03 A304 RMK A01 T00031025  RH  082%=      5-min Rain = 0
KWA1 112137Z 01017KT 00/M03 A304 RMK A01 T00031025  RH  081%=      5-min Rain = 0
KWA1 112138Z 01019KT 00/M02 A304 RMK A01 T00031024  RH  082%=      5-min Rain = 0
KWA1 112139Z 01016KT 00/M02 A304 RMK A01 T00031024  RH  083%=      5-min Rain = 0
KWA1 112140Z 00015KT 00/M02 A304 RMK A01 T00031022  RH  083%=      5-min Rain = 0
KWA1 112141Z 00015KT 00/M02 A304 RMK A01 T00041021  RH  084%=      5-min Rain = 0
KWA1 112142Z 00015KT 00/M02 A304 RMK A01 T00041020  RH  084%=      5-min Rain = 0
KWA1 112143Z 00020KT 00/M02 A304 RMK A01 T00031021  RH  084%=      5-min Rain = 0
KWA1 112144Z 00020KT 00/M02 A3041 RMK A01 T00031023  RH  083%=      5-min Rain = 0
KWA1 112145Z 36022KT 00/M02 A3041 RMK A01 T00021023  RH  083%=      5-min Rain = 0
KWA1 112146Z 00020KT 00/M02 A3041 RMK A01 T00021023  RH  083%=      5-min Rain = 0
KWA1 112147Z 00021KT 00/M02 A3041 RMK A01 T00021023  RH  083%=      5-min Rain = 0
KWA1 112148Z 01020KT 00/M02 A3042 RMK A01 T00011023  RH  084%=      5-min Rain = 0
KWA1 112149Z 01023KT 00/M02 A3042 RMK A01 T00011023  RH  084%=      5-min Rain = 0
KWA1 112150Z 01017KT 00/M02 A3042 RMK A01 T00011024  RH  083%=      5-min Rain = 0
KWA1 112151Z 02019KT 00/M02 A3042 RMK A01 T00011022  RH  084%=      5-min Rain = 0
KWA1 112152Z 01022G28KT 00/M02 A3042 RMK A01 T00011022  RH  084%=      5-min Rain = 0
KWA1 112153Z 02024KT 00/M02 A3042 RMK A01 T00011024  RH  083%=      5-min Rain = 0
KWA1 112154Z 02022KT 00/M03 A3042 RMK A01 T00011025  RH  083%=      5-min Rain = 0
KWA1 112155Z 02022KT 00/M03 A3042 RMK A01 T00011025  RH  083%=      5-min Rain = 0
KWA1 112156Z 01023KT 00/M03 A3042 RMK A01 T00011025  RH  083%=      5-min Rain = 0
KWA1 112157Z 02019KT 00/03 A3042 RMK A01 T00000-26  RH  083%=      5-min Rain = 0
KWA1 112158Z 01017KT 00/M02 A3042 RMK A01 T00011024  RH  083%=      5-min Rain = 0
KWA1 112159Z 01017KT 00/M02 A3042 RMK A01 T00021022  RH  084%=      5-min Rain = 0
KWA1 112200Z 01023KT 00/M02 A3042 RMK A01 T00021022  RH  084%=      5-min Rain = 0
KWA1 112201Z 01017KT 00/M02 A3042 RMK A01 T00021024  RH  083%=      5-min Rain = 0
KWA1 112202Z 01022G29KT 00/M02 A3043 RMK A01 T00021023  RH  083%=      5-min Rain = 0
KWA1 112203Z 01026KT 00/M03 A3043 RMK A01 T00021026  RH  082%=      5-min Rain = 0
KWA1 112204Z 36024KT 00/M03 A3043 RMK A01 T00021026  RH  081%=      5-min Rain = 0
KWA1 112205Z 01024G29KT 00/M03 A3043 RMK A01 T00021027  RH  081%=      5-min Rain = 0
KWA1 112206Z 01023G28KT 00/M03 A3043 RMK A01 T00021027  RH  081%=      5-min Rain = 0
KWA1 112207Z 01025KT 00/M03 A3043 RMK A01 T00011028  RH  081%=      5-min Rain = 0
KWA1 112208Z 01025KT 00/M03 A3043 RMK A01 T00021028  RH  081%=      5-min Rain = 0
KWA1 112209Z 02025KT 00/M03 A3043 RMK A01 T00011028  RH  081%=      5-min Rain = 0
KWA1 112210Z 01024KT 00/M03 A3043 RMK A01 T00011028  RH  081%=      5-min Rain = 0
KWA1 112211Z 02023G28KT 00/M03 A3043 RMK A01 T00011027  RH  081%=      5-min Rain = 0
KWA1 112212Z 02019KT 00/M03 A3043 RMK A01 T00011028  RH  081%=      5-min Rain = 0
KWA1 112213Z 01021KT 00/M03 A3043 RMK A01 T00011027  RH  081%=      5-min Rain = 0
KWA1 112214Z 02022KT 00/M03 A3043 RMK A01 T00011027  RH  081%=      5-min Rain = 0
KWA1 112215Z 02020KT 00/M03 A3043 RMK A01 T00011028  RH  081%=      5-min Rain = 0
KWA1 112216Z 01015KT 00/M03 A3043 RMK A01 T00011026  RH  082%=      5-min Rain = 0
KWA1 112217Z 02016G21KT 00/M02 A3043 RMK A01 T00011024  RH  083%=      5-min Rain = 0
KWA1 112218Z 01019KT 00/M02 A3043 RMK A01 T00011024  RH  083%=      5-min Rain = 0
KWA1 112219Z 02021KT 00/M03 A3044 RMK A01 T00011025  RH  083%=      5-min Rain = 0
KWA1 112220Z 01021KT 00/M03 A3043 RMK A01 T00011025  RH  082%=      5-min Rain = 0
KWA1 112221Z 01021G26KT 00/M03 A3043 RMK A01 T00021025  RH  082%=      5-min Rain = 0
KWA1 112222Z 01018KT 00/M03 A3043 RMK A01 T00011025  RH  082%=      5-min Rain = 0
KWA1 112223Z 02018KT 00/M02 A3044 RMK A01 T00011024  RH  083%=      5-min Rain = 0
KWA1 112224Z 02020KT 00/M02 A3044 RMK A01 T00011024  RH  083%=      5-min Rain = 0
KWA1 112225Z 01020KT 00/M02 A3044 RMK A01 T00011024  RH  083%=      5-min Rain = 0
KWA1 112226Z 00019KT 00/M02 A3044 RMK A01 T00011023  RH  084%=      5-min Rain = 0
KWA1 112227Z 01016KT 00/M02 A3044 RMK A01 T00011023  RH  084%=      5-min Rain = 0
KWA1 112228Z 00015KT 00/M02 A3044 RMK A01 T00021022  RH  084%=      5-min Rain = 0
KWA1 112229Z 01016KT 00/M02 A3044 RMK A01 T00021021  RH  084%=      5-min Rain = 0
KWA1 112230Z 01015KT 00/M02 A3044 RMK A01 T00031021  RH  084%=      5-min Rain = 0
KWA1 112231Z 01019KT 00/M02 A3044 RMK A01 T00031021  RH  084%=      5-min Rain = 0
KWA1 112232Z 01019KT 00/M02 A3044 RMK A01 T00031023  RH  083%=      5-min Rain = 0
KWA1 112233Z 02017KT 00/M02 A3044 RMK A01 T00031023  RH  083%=      5-min Rain = 0
KWA1 112234Z 02017KT 00/M02 A3044 RMK A01 T00031023  RH  083%=      5-min Rain = 0
KWA1 112235Z 01019KT 00/M02 A3044 RMK A01 T00031023  RH  083%=      5-min Rain = 0
KWA1 112236Z 01018KT 00/M02 A3044 RMK A01 T00031024  RH  082%=      5-min Rain = 0
KWA1 112237Z 01017KT 00/M03 A3044 RMK A01 T00031025  RH  082%=      5-min Rain = 0
KWA1 112238Z 02019KT 00/M03 A3044 RMK A01 T00021025  RH  082%=      5-min Rain = 0
KWA1 112239Z 02017KT 00/M03 A3044 RMK A01 T00011027  RH  081%=      5-min Rain = 0
KWA1 112240Z 01018G23KT 00/M03 A3045 RMK A01 T00021025  RH  082%=      5-min Rain = 0
KWA1 112241Z 01018KT 00/M03 A3045 RMK A01 T00011025  RH  082%=      5-min Rain = 0
KWA1 112242Z 01020KT 00/M03 A3045 RMK A01 T00011025  RH  083%=      5-min Rain = 0
KWA1 112243Z 01020KT 00/M03 A3045 RMK A01 T00011026  RH  082%=      5-min Rain = 0
KWA1 112244Z 01019KT 00/M03 A3045 RMK A01 T00011025  RH  083%=      5-min Rain = 0
KWA1 112245Z 01019G24KT 00/M02 A3045 RMK A01 T00011024  RH  083%=      5-min Rain = 0
KWA1 112246Z 01019KT 00/M02 A3045 RMK A01 T00011023  RH  084%=      5-min Rain = 0
KWA1 112247Z 01017KT 00/M02 A3045 RMK A01 T00011023  RH  084%=      5-min Rain = 0
KWA1 112248Z 36018KT 00/M02 A3045 RMK A01 T00011021  RH  085%=      5-min Rain = 0
KWA1 112249Z 01025KT 00/02 A3045 RMK A01 T00000-23  RH  084%=      5-min Rain = 0
KWA1 112250Z 01023KT M00/M03 A3045 RMK A01 T10011029  RH  082%=      5-min Rain = 0
KWA1 112251Z 00022KT M00/M03 A3045 RMK A01 T10031031  RH  081%=      5-min Rain = 0
KWA1 112252Z 01022G29KT M00/M03 A3045 RMK A01 T10031033  RH  081%=      5-min Rain = 0
KWA1 112253Z 01023KT M00/M03 A3045 RMK A01 T10041034  RH  080%=      5-min Rain = 0
KWA1 112254Z 00024KT M01/M04 A3045 RMK A01 T10051035  RH  080%=      5-min Rain = 0
KWA1 112255Z 01022KT M01/M04 A3045 RMK A01 T10051036  RH  080%=      5-min Rain = 0
KWA1 112256Z 01020KT M01/M04 A3045 RMK A01 T10051035  RH  080%=      5-min Rain = 0
KWA1 112257Z 01021G26KT M01/M04 A3045 RMK A01 T10061035  RH  080%=      5-min Rain = 0
KWA1 112258Z 00020KT M01/M04 A3045 RMK A01 T10061037  RH  080%=      5-min Rain = 0
KWA1 112259Z 01019KT M01/M04 A3045 RMK A01 T10061037  RH  080%=      5-min Rain = 0
KWA1 112300Z 01018KT M01/M04 A3045 RMK A01 T10061035  RH  081%=      5-min Rain = 0
KWA1 112301Z 01017KT M01/M04 A3046 RMK A01 T10061036  RH  081%=      5-min Rain = 0
KWA1 112302Z 01020KT M01/M04 A3046 RMK A01 T10061036  RH  080%=      5-min Rain = 0
KWA1 112303Z 01020KT M01/M04 A3046 RMK A01 T10061036  RH  080%=      5-min Rain = 0
KWA1 112304Z 01017G23KT M01/M04 A3046 RMK A01 T10071037  RH  080%=      5-min Rain = 0
KWA1 112305Z 02017KT M01/M04 A3046 RMK A01 T10071035  RH  081%=      5-min Rain = 0
KWA1 112306Z 02018KT M01/M04 A3046 RMK A01 T10061035  RH  081%=      5-min Rain = 0
KWA1 112307Z 02013G19KT M01/M04 A3046 RMK A01 T10071035  RH  081%=      5-min Rain = 0
KWA1 112308Z 01019KT M01/M03 A3046 RMK A01 T10061034  RH  081%=      5-min Rain = 0
KWA1 112309Z 02016KT M01/M04 A3046 RMK A01 T10061035  RH  081%=      5-min Rain = 0
KWA1 112310Z 01018KT M01/M04 A3046 RMK A01 T10061035  RH  081%=      5-min Rain = 0
KWA1 112311Z 01018KT M01/M04 A3046 RMK A01 T10061036  RH  081%=      5-min Rain = 0
KWA1 112312Z 01019G24KT M01/M04 A3046 RMK A01 T10061035  RH  081%=      5-min Rain = 0
KWA1 112313Z 02019KT M01/M04 A3046 RMK A01 T10071036  RH  080%=      5-min Rain = 0
KWA1 112314Z 02019KT M01/M04 A3047 RMK A01 T10071036  RH  081%=      5-min Rain = 0
KWA1 112315Z 02020KT M01/M04 A3047 RMK A01 T10071036  RH  080%=      5-min Rain = 0
KWA1 112316Z 01016KT M01/M04 A3047 RMK A01 T10071036  RH  081%=      5-min Rain = 0
KWA1 112317Z 01015KT M01/M03 A3047 RMK A01 T10071034  RH  082%=      5-min Rain = 0
KWA1 112318Z 01017KT M01/M03 A3047 RMK A01 T10061033  RH  082%=      5-min Rain = 0
KWA1 112319Z 01015KT M01/M03 A3047 RMK A01 T10061033  RH  082%=      5-min Rain = 0
KWA1 112320Z 01015KT M01/M03 A3047 RMK A01 T10061033  RH  082%=      5-min Rain = 0
KWA1 112321Z 01016KT M01/M03 A3047 RMK A01 T10061033  RH  082%=      5-min Rain = 0
KWA1 112322Z 01016KT M01/M03 A3047 RMK A01 T10061033  RH  082%=      5-min Rain = 0
KWA1 112323Z 00017KT M01/M03 A3047 RMK A01 T10061032  RH  082%=      5-min Rain = 0
KWA1 112324Z 35017KT M01/M03 A3047 RMK A01 T10051031  RH  083%=      5-min Rain = 0
KWA1 112325Z 00017KT M01/M03 A3047 RMK A01 T10051030  RH  083%=      5-min Rain = 0
KWA1 112326Z 35015KT M01/M03 A3047 RMK A01 T10051029  RH  084%=      5-min Rain = 0
KWA1 112327Z 36019G25KT M01/M03 A3047 RMK A01 T10061029  RH  084%=      5-min Rain = 0
KWA1 112328Z 00021G26KT M01/M03 A3047 RMK A01 T10061030  RH  084%=      5-min Rain = 0
KWA1 112329Z 01021KT M01/M03 A3047 RMK A01 T10061033  RH  082%=      5-min Rain = 0
KWA1 112330Z 01021G26KT M01/M03 A3047 RMK A01 T10061034  RH  081%=      5-min Rain = 0
KWA1 112331Z 00021KT M01/M04 A3047 RMK A01 T10061035  RH  081%=      5-min Rain = 0
KWA1 112332Z 01019G25KT M01/M04 A3047 RMK A01 T10061036  RH  080%=      5-min Rain = 0
KWA1 112333Z 01021KT M01/M04 A3047 RMK A01 T10061035  RH  081%=      5-min Rain = 0
KWA1 112334Z 02018KT M01/M04 A3047 RMK A01 T10071036  RH  080%=      5-min Rain = 0
KWA1 112335Z 02019G25KT M01/M04 A3047 RMK A01 T10071036  RH  081%=      5-min Rain = 0
KWA1 112336Z 02019KT M01/M04 A3047 RMK A01 T10071036  RH  081%=      5-min Rain = 0
KWA1 112337Z 01020KT M01/M04 A3047 RMK A01 T10071036  RH  081%=      5-min Rain = 0
KWA1 112338Z 01017KT M01/M04 A3048 RMK A01 T10071035  RH  081%=      5-min Rain = 0
KWA1 112339Z 00018KT M01/M04 A3048 RMK A01 T10071035  RH  081%=      5-min Rain = 0
KWA1 112340Z 00017KT M01/M04 A3048 RMK A01 T10071036  RH  081%=      5-min Rain = 0
KWA1 112341Z 01018G23KT M01/M04 A3048 RMK A01 T10071036  RH  081%=      5-min Rain = 0
KWA1 112342Z 01019KT M01/M04 A3048 RMK A01 T10071037  RH  080%=      5-min Rain = 0
KWA1 112343Z 01020KT M01/M04 A3048 RMK A01 T10071038  RH  079%=      5-min Rain = 0
KWA1 112344Z 01019G25KT M01/M04 A3048 RMK A01 T10071039  RH  079%=      5-min Rain = 0
KWA1 112345Z 01021G27KT M01/M04 A3048 RMK A01 T10071040  RH  079%=      5-min Rain = 0
KWA1 112346Z 01024KT M01/M04 A3048 RMK A01 T10081042  RH  078%=      5-min Rain = 0
KWA1 112347Z 02020KT M01/M04 A3048 RMK A01 T10081043  RH  077%=      5-min Rain = 0
KWA1 112348Z 01019KT M01/M04 A3048 RMK A01 T10081042  RH  078%=      5-min Rain = 0
KWA1 112349Z 01020KT M01/M04 A3048 RMK A01 T10081042  RH  078%=      5-min Rain = 0
KWA1 112350Z 02021KT M01/M04 A3048 RMK A01 T10081043  RH  077%=      5-min Rain = 0
KWA1 112351Z 01019KT M01/M04 A3048 RMK A01 T10081043  RH  077%=      5-min Rain = 0
KWA1 112352Z 01019KT M01/M04 A3048 RMK A01 T10081042  RH  077%=      5-min Rain = 0
KWA1 112353Z 02020KT M01/M04 A3048 RMK A01 T10081042  RH  078%=      5-min Rain = 0
KWA1 112354Z 01018KT M01/M04 A3048 RMK A01 T10081043  RH  077%=      5-min Rain = 0
KWA1 112355Z 01017KT M01/M04 A3048 RMK A01 T10081043  RH  077%=      5-min Rain = 0
KWA1 112356Z 01018G25KT M01/M04 A3048 RMK A01 T10071042  RH  077%=      5-min Rain = 0
KWA1 112357Z 01023KT M01/M04 A3048 RMK A01 T10071043  RH  077%=      5-min Rain = 0
KWA1 112358Z 01022KT M01/M05 A3048 RMK A01 T10071045  RH  076%=      5-min Rain = 0
KWA1 112359Z 02017KT M01/M04 A3048 RMK A01 T10071044  RH  076%=      5-min Rain = 0
KWA1 120000Z 01020KT M01/M04 A3048 RMK A01 T10071043  RH  077%=      5-min Rain = 0
KWA1 120001Z 02019KT M01/M04 A3048 RMK A01 T10071044  RH  076%=      5-min Rain = 0
KWA1 120002Z 01017KT M01/M05 A3048 RMK A01 T10081045  RH  076%=      5-min Rain = 0
KWA1 120003Z 01018KT M01/M04 A3048 RMK A01 T10081044  RH  077%=      5-min Rain = 0
KWA1 120004Z 01016KT M01/M04 A3048 RMK A01 T10081043  RH  077%=      5-min Rain = 0
KWA1 120005Z 36017KT M01/M04 A3049 RMK A01 T10081043  RH  077%=      5-min Rain = 0
KWA1 120006Z 01016KT M01/M04 A3049 RMK A01 T10071042  RH  077%=      5-min Rain = 0
KWA1 120007Z 01016KT M01/M04 A3049 RMK A01 T10071041  RH  078%=      5-min Rain = 0
KWA1 120008Z 01017KT M01/M04 A3049 RMK A01 T10071041  RH  078%=      5-min Rain = 0
KWA1 120009Z 00015KT M01/M04 A3049 RMK A01 T10071042  RH  077%=      5-min Rain = 0
KWA1 120010Z 01015KT M01/M04 A3049 RMK A01 T10071041  RH  078%=      5-min Rain = 0
KWA1 120011Z 36017KT M01/M04 A3049 RMK A01 T10071041  RH  078%=      5-min Rain = 0
KWA1 120012Z 00018KT M01/M04 A3049 RMK A01 T10071042  RH  077%=      5-min Rain = 0
KWA1 120013Z 36016KT M01/M04 A3049 RMK A01 T10071042  RH  077%=      5-min Rain = 0
KWA1 120014Z 00017KT M01/M04 A305 RMK A01 T10071040  RH  078%=      5-min Rain = 0
KWA1 120015Z 01015KT M01/M04 A305 RMK A01 T10071040  RH  078%=      5-min Rain = 0
KWA1 120016Z 00015KT M01/M04 A305 RMK A01 T10071040  RH  078%=      5-min Rain = 0
KWA1 120017Z 00015KT M01/M04 A305 RMK A01 T10071040  RH  078%=      5-min Rain = 0
KWA1 120018Z 00014G19KT M01/M04 A305 RMK A01 T10071040  RH  078%=      5-min Rain = 0
KWA1 120019Z 00017KT M01/M04 A305 RMK A01 T10071040  RH  078%=      5-min Rain = 0
KWA1 120020Z 36016KT M01/M04 A305 RMK A01 T10061041  RH  077%=      5-min Rain = 0
KWA1 120021Z 01018KT M01/M04 A305 RMK A01 T10071043  RH  077%=      5-min Rain = 0
KWA1 120022Z 00015G20KT M01/M04 A305 RMK A01 T10071043  RH  076%=      5-min Rain = 0
KWA1 120023Z 00017KT M01/M04 A305 RMK A01 T10071043  RH  077%=      5-min Rain = 0
KWA1 120024Z 01018KT M01/M04 A305 RMK A01 T10071043  RH  076%=      5-min Rain = 0
KWA1 120025Z 01016KT M01/M04 A305 RMK A01 T10071044  RH  076%=      5-min Rain = 0
KWA1 120026Z 01015KT M01/M04 A305 RMK A01 T10071043  RH  076%=      5-min Rain = 0
KWA1 120027Z 01017KT M01/M04 A305 RMK A01 T10071043  RH  076%=      5-min Rain = 0
KWA1 120028Z 01017KT M01/M05 A305 RMK A01 T10071045  RH  075%=      5-min Rain = 0
KWA1 120029Z 00013KT M01/M05 A3051 RMK A01 T10071045  RH  075%=      5-min Rain = 0
KWA1 120030Z 00013KT M01/M04 A3051 RMK A01 T10071044  RH  076%=      5-min Rain = 0
KWA1 120031Z 00015KT M01/M04 A3051 RMK A01 T10071044  RH  076%=      5-min Rain = 0
KWA1 120032Z 01014KT M01/M04 A3051 RMK A01 T10071044  RH  076%=      5-min Rain = 0
KWA1 120033Z 00012KT M01/M04 A3051 RMK A01 T10071044  RH  076%=      5-min Rain = 0
KWA1 120034Z 00013KT M01/M04 A3051 RMK A01 T10061043  RH  077%=      5-min Rain = 0
KWA1 120035Z 36013KT M01/M04 A3051 RMK A01 T10061043  RH  076%=      5-min Rain = 0
KWA1 120036Z 00015KT M01/M04 A3051 RMK A01 T10061044  RH  076%=      5-min Rain = 0
KWA1 120037Z 01015KT M01/M05 A3051 RMK A01 T10061046  RH  075%=      5-min Rain = 0
KWA1 120038Z 00015KT M01/M05 A3051 RMK A01 T10061046  RH  075%=      5-min Rain = 0
KWA1 120039Z 00013KT M01/M05 A3051 RMK A01 T10061045  RH  075%=      5-min Rain = 0
KWA1 120040Z 00015KT M01/M04 A3051 RMK A01 T10061044  RH  076%=      5-min Rain = 0
KWA1 120041Z 00013KT M01/M04 A3051 RMK A01 T10061043  RH  076%=      5-min Rain = 0
KWA1 120042Z 00014KT M01/M04 A3052 RMK A01 T10061043  RH  076%=      5-min Rain = 0
KWA1 120043Z 00016KT M01/M05 A3051 RMK A01 T10061045  RH  075%=      5-min Rain = 0
KWA1 120044Z 00015KT M01/M05 A3051 RMK A01 T10061046  RH  075%=      5-min Rain = 0
KWA1 120045Z 01014KT M01/M05 A3051 RMK A01 T10061045  RH  075%=      5-min Rain = 0
KWA1 120046Z 00013KT M01/M04 A3051 RMK A01 T10061044  RH  076%=      5-min Rain = 0
KWA1 120047Z 36011KT M01/M04 A3051 RMK A01 T10061042  RH  077%=      5-min Rain = 0
KWA1 120048Z 36014KT M01/M04 A3052 RMK A01 T10061042  RH  077%=      5-min Rain = 0
KWA1 120049Z 00015KT M01/M04 A3052 RMK A01 T10061044  RH  076%=      5-min Rain = 0
KWA1 120050Z 00016G21KT M01/M05 A3052 RMK A01 T10061045  RH  075%=      5-min Rain = 0
KWA1 120051Z 00014KT M01/M04 A3052 RMK A01 T10061044  RH  075%=      5-min Rain = 0
KWA1 120052Z 36016KT M01/M04 A3052 RMK A01 T10061043  RH  076%=      5-min Rain = 0
KWA1 120053Z 00014KT M01/M04 A3052 RMK A01 T10051044  RH  075%=      5-min Rain = 0
KWA1 120054Z 01016KT M01/M04 A3052 RMK A01 T10061044  RH  075%=      5-min Rain = 0
KWA1 120055Z 00013KT M01/M04 A3052 RMK A01 T10051043  RH  075%=      5-min Rain = 0
KWA1 120056Z 00013G18KT M01/M04 A3052 RMK A01 T10051042  RH  076%=      5-min Rain = 0
KWA1 120057Z 01015KT M01/M04 A3052 RMK A01 T10051042  RH  076%=      5-min Rain = 0
KWA1 120058Z 01017KT M01/M04 A3052 RMK A01 T10051044  RH  075%=      5-min Rain = 0
KWA1 120059Z 01016KT M01/M05 A3052 RMK A01 T10051046  RH  074%=      5-min Rain = 0
KWA1 120100Z 01016KT M01/M05 A3052 RMK A01 T10051046  RH  074%=      5-min Rain = 0
KWA1 120101Z 01015KT M01/M05 A3052 RMK A01 T10051045  RH  074%=      5-min Rain = 0
KWA1 120102Z 01014KT M01/M05 A3052 RMK A01 T10051045  RH  074%=      5-min Rain = 0
KWA1 120103Z 00015KT M01/M04 A3052 RMK A01 T10051044  RH  075%=      5-min Rain = 0
KWA1 120104Z 00015KT M01/M05 A3052 RMK A01 T10051045  RH  075%=      5-min Rain = 0
KWA1 120105Z 00014KT M01/M05 A3052 RMK A01 T10051045  RH  074%=      5-min Rain = 0
KWA1 120106Z 00010KT M01/M04 A3051 RMK A01 T10051042  RH  076%=      5-min Rain = 0
KWA1 120107Z 00011KT M00/M04 A3052 RMK A01 T10041039  RH  077%=      5-min Rain = 0
KWA1 120108Z 01020G25KT M00/M04 A3052 RMK A01 T10041041  RH  076%=      5-min Rain = 0
KWA1 120109Z 00019KT M00/M05 A3052 RMK A01 T10041047  RH  072%=      5-min Rain = 0
KWA1 120110Z 00015KT M00/M05 A3052 RMK A01 T10041048  RH  072%=      5-min Rain = 0
KWA1 120111Z 36014KT M00/M05 A3052 RMK A01 T10041046  RH  073%=      5-min Rain = 0
KWA1 120112Z 36015KT M00/M05 A3052 RMK A01 T10041045  RH  074%=      5-min Rain = 0
KWA1 120113Z 36014KT M00/M05 A3052 RMK A01 T10041045  RH  074%=      5-min Rain = 0
KWA1 120114Z 00015KT M00/M05 A3052 RMK A01 T10041046  RH  073%=      5-min Rain = 0
KWA1 120115Z 00016KT M00/M05 A3052 RMK A01 T10041045  RH  074%=      5-min Rain = 0
KWA1 120116Z 00018KT M00/M05 A3052 RMK A01 T10041046  RH  073%=      5-min Rain = 0
KWA1 120117Z 01012G18KT M00/M05 A3052 RMK A01 T10041045  RH  074%=      5-min Rain = 0
KWA1 120118Z 01020KT M00/M05 A3052 RMK A01 T10041046  RH  073%=      5-min Rain = 0
KWA1 120119Z 01019KT M00/M05 A3052 RMK A01 T10041051  RH  070%=      5-min Rain = 0
KWA1 120120Z 01017KT M00/M05 A3052 RMK A01 T10041051  RH  070%=      5-min Rain = 0
KWA1 120121Z 01018KT M00/M05 A3052 RMK A01 T10041050  RH  071%=      5-min Rain = 0
KWA1 120122Z 01021KT M00/M05 A3052 RMK A01 T10041050  RH  071%=      5-min Rain = 0
KWA1 120123Z 01021KT M00/M05 A3052 RMK A01 T10041053  RH  069%=      5-min Rain = 0
KWA1 120124Z 01019KT M00/M05 A3052 RMK A01 T10041052  RH  070%=      5-min Rain = 0
KWA1 120125Z 01019KT M00/M05 A3052 RMK A01 T10041049  RH  072%=      5-min Rain = 0
KWA1 120126Z 01017KT M00/M05 A3052 RMK A01 T10041048  RH  072%=      5-min Rain = 0
KWA1 120127Z 01016KT M00/M05 A3052 RMK A01 T10041046  RH  073%=      5-min Rain = 0
KWA1 120128Z 01014KT M00/M05 A3052 RMK A01 T10041046  RH  074%=      5-min Rain = 0
KWA1 120129Z 01015KT M00/M04 A3052 RMK A01 T10041044  RH  074%=      5-min Rain = 0
KWA1 120130Z 01015KT M00/M04 A3052 RMK A01 T10041044  RH  075%=      5-min Rain = 0
KWA1 120131Z 00017KT M00/M04 A3052 RMK A01 T10041044  RH  074%=      5-min Rain = 0
KWA1 120132Z 01019KT M01/M05 A3052 RMK A01 T10051047  RH  073%=      5-min Rain = 0
KWA1 120133Z 00016G21KT M00/M05 A3052 RMK A01 T10041047  RH  073%=      5-min Rain = 0
KWA1 120134Z 00019KT M00/M05 A3052 RMK A01 T10041047  RH  073%=      5-min Rain = 0
KWA1 120135Z 01021KT M00/M05 A3052 RMK A01 T10041049  RH  072%=      5-min Rain = 0
KWA1 120136Z 01018KT M00/M05 A3052 RMK A01 T10041049  RH  072%=      5-min Rain = 0
KWA1 120137Z 00017KT M00/M05 A3052 RMK A01 T10041048  RH  072%=      5-min Rain = 0
KWA1 120138Z 00020KT M00/M05 A3052 RMK A01 T10041049  RH  072%=      5-min Rain = 0
KWA1 120139Z 01020KT M00/M05 A3052 RMK A01 T10041051  RH  071%=      5-min Rain = 0
KWA1 120140Z 00019KT M00/M05 A3052 RMK A01 T10041051  RH  071%=      5-min Rain = 0
KWA1 120141Z 00016KT M00/M05 A3052 RMK A01 T10041051  RH  071%=      5-min Rain = 0
KWA1 120142Z 01019KT M00/M05 A3052 RMK A01 T10041049  RH  072%=      5-min Rain = 0
KWA1 120143Z 01015KT M00/M05 A3052 RMK A01 T10041049  RH  071%=      5-min Rain = 0
KWA1 120144Z 01014KT M00/M05 A3052 RMK A01 T10041047  RH  073%=      5-min Rain = 0
KWA1 120145Z 00017G22KT M00/M05 A3052 RMK A01 T10041047  RH  073%=      5-min Rain = 0
KWA1 120146Z 01017KT M00/M05 A3052 RMK A01 T10041051  RH  071%=      5-min Rain = 0
KWA1 120147Z 01014G19KT M00/M05 A3052 RMK A01 T10041049  RH  072%=      5-min Rain = 0
KWA1 120148Z 01018G23KT M00/M05 A3052 RMK A01 T10041048  RH  072%=      5-min Rain = 0
KWA1 120149Z 01017KT M00/M05 A3052 RMK A01 T10041053  RH  070%=      5-min Rain = 0
KWA1 120150Z 01017KT M00/M05 A3052 RMK A01 T10041051  RH  071%=      5-min Rain = 0
KWA1 120151Z 01021KT M00/M05 A3052 RMK A01 T10041052  RH  070%=      5-min Rain = 0
KWA1 120152Z 01020KT M00/M05 A3052 RMK A01 T10041054  RH  069%=      5-min Rain = 0
KWA1 120153Z 01020KT M00/M06 A3052 RMK A01 T10041055  RH  069%=      5-min Rain = 0
KWA1 120154Z 01019KT M00/M06 A3052 RMK A01 T10041055  RH  069%=      5-min Rain = 0
KWA1 120155Z 02018KT M00/M06 A3052 RMK A01 T10041055  RH  069%=      5-min Rain = 0
KWA1 120156Z 01017KT M00/M05 A3052 RMK A01 T10041053  RH  069%=      5-min Rain = 0
KWA1 120157Z 01017KT M00/M05 A3052 RMK A01 T10041054  RH  069%=      5-min Rain = 0
KWA1 120158Z 01014KT M00/M05 A3052 RMK A01 T10041053  RH  070%=      5-min Rain = 0
KWA1 120159Z 01013KT M00/M05 A3052 RMK A01 T10041050  RH  071%=      5-min Rain = 0
KWA1 120200Z 01017G22KT M00/M05 A3052 RMK A01 T10041051  RH  071%=      5-min Rain = 0
KWA1 120201Z 01018KT M00/M05 A3053 RMK A01 T10041054  RH  069%=      5-min Rain = 0
KWA1 120202Z 01016KT M00/M06 A3052 RMK A01 T10041055  RH  068%=      5-min Rain = 0
KWA1 120203Z 02015KT M00/M05 A3052 RMK A01 T10041053  RH  069%=      5-min Rain = 0
KWA1 120204Z 01014KT M00/M05 A3052 RMK A01 T10041051  RH  071%=      5-min Rain = 0
KWA1 120205Z 02016KT M00/M05 A3052 RMK A01 T10041049  RH  071%=      5-min Rain = 0
KWA1 120206Z 02016G21KT M00/M05 A3052 RMK A01 T10041051  RH  070%=      5-min Rain = 0
KWA1 120207Z 02014KT M00/M05 A3052 RMK A01 T10041051  RH  070%=      5-min Rain = 0
KWA1 120208Z 01016KT M00/M05 A3052 RMK A01 T10041051  RH  071%=      5-min Rain = 0
KWA1 120209Z 01017KT M00/M05 A3052 RMK A01 T10041054  RH  069%=      5-min Rain = 0
KWA1 120210Z 01018KT M00/M05 A3052 RMK A01 T10031053  RH  069%=      5-min Rain = 0
KWA1 120211Z 02019KT M00/M05 A3052 RMK A01 T10041054  RH  069%=      5-min Rain = 0
KWA1 120212Z 02022KT M00/M06 A3052 RMK A01 T10041057  RH  067%=      5-min Rain = 0
KWA1 120213Z 01020KT M00/M06 A3052 RMK A01 T10041057  RH  067%=      5-min Rain = 0
KWA1 120214Z 02016KT M00/M05 A3052 RMK A01 T10031054  RH  069%=      5-min Rain = 0
KWA1 120215Z 01016KT M00/M05 A3053 RMK A01 T10031052  RH  070%=      5-min Rain = 0
KWA1 120216Z 01019G24KT M00/M05 A3053 RMK A01 T10031051  RH  070%=      5-min Rain = 0
KWA1 120217Z 01020KT M00/M05 A3053 RMK A01 T10041054  RH  069%=      5-min Rain = 0
KWA1 120218Z 01018KT M00/M05 A3053 RMK A01 T10041054  RH  069%=      5-min Rain = 0
KWA1 120219Z 01015KT M00/M05 A3053 RMK A01 T10041052  RH  070%=      5-min Rain = 0
KWA1 120220Z 01020KT M00/M05 A3053 RMK A01 T10041051  RH  070%=      5-min Rain = 0
KWA1 120221Z 01018KT M00/M06 A3053 RMK A01 T10041055  RH  068%=      5-min Rain = 0
KWA1 120222Z 01016KT M00/M05 A3053 RMK A01 T10041052  RH  070%=      5-min Rain = 0
KWA1 120223Z 01018KT M00/M05 A3053 RMK A01 T10041053  RH  069%=      5-min Rain = 0
KWA1 120224Z 01018G23KT M00/M05 A3053 RMK A01 T10031054  RH  068%=      5-min Rain = 0
KWA1 120225Z 02015G20KT M00/M05 A3053 RMK A01 T10041054  RH  068%=      5-min Rain = 0
KWA1 120226Z 01019KT M00/M05 A3053 RMK A01 T10041053  RH  069%=      5-min Rain = 0
KWA1 120227Z 01019KT M00/M06 A3053 RMK A01 T10031055  RH  068%=      5-min Rain = 0
KWA1 120228Z 01021KT M00/M06 A3053 RMK A01 T10031056  RH  068%=      5-min Rain = 0
KWA1 120229Z 01020KT M00/M06 A3053 RMK A01 T10041057  RH  067%=      5-min Rain = 0
KWA1 120230Z 01017G22KT M00/M06 A3053 RMK A01 T10031057  RH  067%=      5-min Rain = 0
KWA1 120231Z 01017G22KT M00/M06 A3053 RMK A01 T10041055  RH  068%=      5-min Rain = 0
KWA1 120232Z 01019KT M00/M06 A3053 RMK A01 T10041056  RH  068%=      5-min Rain = 0
KWA1 120233Z 00019KT M00/M06 A3053 RMK A01 T10041056  RH  068%=      5-min Rain = 0
KWA1 120234Z 01017KT M00/M06 A3053 RMK A01 T10041056  RH  068%=      5-min Rain = 0
KWA1 120235Z 01021KT M00/M06 A3053 RMK A01 T10041057  RH  067%=      5-min Rain = 0
KWA1 120236Z 01018KT M00/M06 A3053 RMK A01 T10041059  RH  066%=      5-min Rain = 0
KWA1 120237Z 01020G26KT M00/M06 A3053 RMK A01 T10041058  RH  067%=      5-min Rain = 0
KWA1 120238Z 01019KT M00/M06 A3053 RMK A01 T10041058  RH  067%=      5-min Rain = 0
KWA1 120239Z 01017G23KT M00/M06 A3053 RMK A01 T10041057  RH  067%=      5-min Rain = 0
KWA1 120240Z 01018KT M00/M06 A3053 RMK A01 T10041055  RH  068%=      5-min Rain = 0
KWA1 120241Z 01017KT M00/M06 A3053 RMK A01 T10041055  RH  068%=      5-min Rain = 0
KWA1 120242Z 01021KT M00/M06 A3054 RMK A01 T10041056  RH  068%=      5-min Rain = 0
KWA1 120243Z 01020G25KT M00/M06 A3053 RMK A01 T10041059  RH  066%=      5-min Rain = 0
KWA1 120244Z 01018KT M00/M06 A3054 RMK A01 T10041058  RH  067%=      5-min Rain = 0
KWA1 120245Z 01017G22KT M00/M06 A3054 RMK A01 T10041057  RH  067%=      5-min Rain = 0
KWA1 120246Z 01016G21KT M00/M06 A3054 RMK A01 T10041057  RH  067%=      5-min Rain = 0
KWA1 120247Z 01015KT M00/M06 A3054 RMK A01 T10041055  RH  068%=      5-min Rain = 0
KWA1 120248Z 01017KT M00/M05 A3054 RMK A01 T10041054  RH  069%=      5-min Rain = 0
KWA1 120249Z 01019KT M01/M06 A3054 RMK A01 T10051056  RH  068%=      5-min Rain = 0
KWA1 120250Z 01019G24KT M01/M06 A3054 RMK A01 T10051057  RH  068%=      5-min Rain = 0
KWA1 120251Z 01021KT M01/M06 A3054 RMK A01 T10051058  RH  068%=      5-min Rain = 0
KWA1 120252Z 01021G26KT M01/M06 A3054 RMK A01 T10051059  RH  067%=      5-min Rain = 0
KWA1 120253Z 01020KT M01/M06 A3054 RMK A01 T10051058  RH  067%=      5-min Rain = 0
KWA1 120254Z 01017KT M01/M06 A3054 RMK A01 T10051057  RH  068%=      5-min Rain = 0
KWA1 120255Z 01022G27KT M01/M06 A3054 RMK A01 T10051056  RH  069%=      5-min Rain = 0
KWA1 120256Z 01021KT M01/M06 A3054 RMK A01 T10051057  RH  068%=      5-min Rain = 0
KWA1 120257Z 00019KT M01/M06 A3054 RMK A01 T10051056  RH  068%=      5-min Rain = 0
KWA1 120258Z 00017KT M01/M06 A3054 RMK A01 T10061055  RH  069%=      5-min Rain = 0
KWA1 120259Z 00018KT M01/M05 A3054 RMK A01 T10051053  RH  070%=      5-min Rain = 0
KWA1 120300Z 36020KT M01/M05 A3054 RMK A01 T10061054  RH  070%=      5-min Rain = 0
KWA1 120301Z 00020KT M01/M05 A3054 RMK A01 T10061053  RH  071%=      5-min Rain = 0
KWA1 120302Z 01018G23KT M01/M05 A3054 RMK A01 T10071054  RH  071%=      5-min Rain = 0
KWA1 120303Z 00018G24KT M01/M05 A3054 RMK A01 T10071052  RH  072%=      5-min Rain = 0
KWA1 120304Z 00020KT M01/M05 A3054 RMK A01 T10071052  RH  072%=      5-min Rain = 0
KWA1 120305Z 01022KT M01/M05 A3054 RMK A01 T10081052  RH  072%=      5-min Rain = 0
KWA1 120306Z 01022KT M01/M05 A3054 RMK A01 T10091051  RH  073%=      5-min Rain = 0
KWA1 120307Z 01023KT M01/M05 A3054 RMK A01 T10081051  RH  073%=      5-min Rain = 0
KWA1 120308Z 01023G29KT M01/M05 A3054 RMK A01 T10091050  RH  073%=      5-min Rain = 0
KWA1 120309Z 01027KT M01/M05 A3054 RMK A01 T10091053  RH  072%=      5-min Rain = 0
KWA1 120310Z 01026G31KT M01/M06 A3054 RMK A01 T10091055  RH  071%=      5-min Rain = 0
KWA1 120311Z 01025KT M01/M05 A3054 RMK A01 T10101054  RH  072%=      5-min Rain = 0
KWA1 120312Z 01022G28KT M01/M05 A3054 RMK A01 T10101053  RH  073%=      5-min Rain = 0
KWA1 120313Z 01025KT M01/M05 A3055 RMK A01 T10101052  RH  074%=      5-min Rain = 0
KWA1 120314Z 01022G27KT M01/M05 A3055 RMK A01 T10111052  RH  073%=      5-min Rain = 0
KWA1 120315Z 02024KT M01/M05 A3055 RMK A01 T10111052  RH  074%=      5-min Rain = 0
KWA1 120316Z 01022G28KT M01/M05 A3055 RMK A01 T10111054  RH  073%=      5-min Rain = 0
KWA1 120317Z 01024G29KT M01/M05 A3055 RMK A01 T10111054  RH  073%=      5-min Rain = 0
KWA1 120318Z 01021KT M01/M06 A3055 RMK A01 T10121055  RH  072%=      5-min Rain = 0
KWA1 120319Z 01022KT M01/M06 A3055 RMK A01 T10121055  RH  073%=      5-min Rain = 0
KWA1 120320Z 01020KT M01/M06 A3055 RMK A01 T10121056  RH  072%=      5-min Rain = 0
KWA1 120321Z 01020KT M01/M06 A3055 RMK A01 T10121056  RH  072%=      5-min Rain = 0
KWA1 120322Z 02020KT M01/M06 A3055 RMK A01 T10121055  RH  072%=      5-min Rain = 0
KWA1 120323Z 02017G22KT M01/M06 A3055 RMK A01 T10121056  RH  072%=      5-min Rain = 0
KWA1 120324Z 02020KT M01/M06 A3055 RMK A01 T10121055  RH  072%=      5-min Rain = 0
KWA1 120325Z 02020G28KT M01/M06 A3055 RMK A01 T10121056  RH  072%=      5-min Rain = 0
KWA1 120326Z 02020G25KT M01/M06 A3055 RMK A01 T10121057  RH  072%=      5-min Rain = 0
KWA1 120327Z 02018KT M01/M06 A3055 RMK A01 T10131057  RH  072%=      5-min Rain = 0
KWA1 120328Z 02016KT M01/M05 A3055 RMK A01 T10131054  RH  073%=      5-min Rain = 0
KWA1 120329Z 02019KT M01/M05 A3055 RMK A01 T10131053  RH  074%=      5-min Rain = 0
KWA1 120330Z 01019KT M01/M06 A3055 RMK A01 T10131055  RH  073%=      5-min Rain = 0
KWA1 120331Z 02020KT M01/M06 A3055 RMK A01 T10131055  RH  073%=      5-min Rain = 0
KWA1 120332Z 02017KT M01/M06 A3055 RMK A01 T10131055  RH  073%=      5-min Rain = 0
KWA1 120333Z 02015KT M01/M05 A3055 RMK A01 T10131053  RH  074%=      5-min Rain = 0
KWA1 120334Z 01018KT M01/M05 A3055 RMK A01 T10131052  RH  075%=      5-min Rain = 0
KWA1 120335Z 02018KT M01/M05 A3055 RMK A01 T10131054  RH  074%=      5-min Rain = 0
KWA1 120336Z 02017KT M01/M06 A3055 RMK A01 T10141055  RH  074%=      5-min Rain = 0
KWA1 120337Z 02016KT M01/M05 A3055 RMK A01 T10131053  RH  074%=      5-min Rain = 0
KWA1 120338Z 02015KT M01/M05 A3055 RMK A01 T10141052  RH  075%=      5-min Rain = 0
KWA1 120339Z 02014KT M01/M05 A3055 RMK A01 T10141051  RH  076%=      5-min Rain = 0
KWA1 120340Z 02016G21KT M01/M05 A3055 RMK A01 T10141050  RH  076%=      5-min Rain = 0
KWA1 120341Z 02018KT M01/M05 A3055 RMK A01 T10131051  RH  076%=      5-min Rain = 0
KWA1 120342Z 01016G21KT M01/M05 A3055 RMK A01 T10141052  RH  075%=      5-min Rain = 0
KWA1 120343Z 02018KT M01/M05 A3055 RMK A01 T10141051  RH  076%=      5-min Rain = 0
KWA1 120344Z 02018KT M01/M05 A3056 RMK A01 T10141052  RH  075%=      5-min Rain = 0
KWA1 120345Z 02017KT M01/M05 A3056 RMK A01 T10141051  RH  075%=      5-min Rain = 0
KWA1 120346Z 02015KT M01/M05 A3056 RMK A01 T10141050  RH  076%=      5-min Rain = 0
KWA1 120347Z 02016KT M01/M05 A3056 RMK A01 T10141049  RH  077%=      5-min Rain = 0
KWA1 120348Z 02018KT M01/M05 A3056 RMK A01 T10131051  RH  075%=      5-min Rain = 0
KWA1 120349Z 02016G21KT M01/M05 A3056 RMK A01 T10131052  RH  075%=      5-min Rain = 0
KWA1 120350Z 02017KT M01/M05 A3056 RMK A01 T10131052  RH  075%=      5-min Rain = 0
KWA1 120351Z 01016KT M01/M05 A3056 RMK A01 T10131054  RH  074%=      5-min Rain = 0
KWA1 120352Z 02016KT M01/M05 A3056 RMK A01 T10131053  RH  074%=      5-min Rain = 0
KWA1 120353Z 02017KT M01/M05 A3056 RMK A01 T10131051  RH  075%=      5-min Rain = 0
KWA1 120354Z 02020G25KT M01/M05 A3056 RMK A01 T10131053  RH  074%=      5-min Rain = 0
KWA1 120355Z 02017G23KT M01/M05 A3056 RMK A01 T10131054  RH  074%=      5-min Rain = 0
KWA1 120356Z 01016KT M01/M05 A3056 RMK A01 T10131052  RH  075%=      5-min Rain = 0
KWA1 120357Z 02014KT M01/M05 A3056 RMK A01 T10121051  RH  075%=      5-min Rain = 0
KWA1 120358Z 02015KT M01/M05 A3056 RMK A01 T10131051  RH  075%=      5-min Rain = 0
KWA1 120359Z 02016KT M01/M05 A3056 RMK A01 T10131052  RH  075%=      5-min Rain = 0
KWA1 120400Z 02015KT M01/M05 A3056 RMK A01 T10131051  RH  075%=      5-min Rain = 0
KWA1 120401Z 02018KT M01/M05 A3056 RMK A01 T10131051  RH  075%=      5-min Rain = 0
KWA1 120402Z 02018KT M01/M05 A3056 RMK A01 T10131052  RH  074%=      5-min Rain = 0
KWA1 120403Z 02017KT M01/M05 A3056 RMK A01 T10121054  RH  073%=      5-min Rain = 0
KWA1 120404Z 02018KT M01/M06 A3056 RMK A01 T10131055  RH  073%=      5-min Rain = 0
KWA1 120405Z 01020KT M01/M06 A3056 RMK A01 T10121056  RH  072%=      5-min Rain = 0
KWA1 120406Z 01021KT M01/M06 A3056 RMK A01 T10121059  RH  070%=      5-min Rain = 0
KWA1 120407Z 01020G25KT M01/M06 A3056 RMK A01 T10121061  RH  069%=      5-min Rain = 0
KWA1 120408Z 02021KT M01/M06 A3056 RMK A01 T10121060  RH  070%=      5-min Rain = 0
KWA1 120409Z 02017KT M01/M06 A3056 RMK A01 T10121060  RH  070%=      5-min Rain = 0
KWA1 120410Z 01015G21KT M01/M06 A3056 RMK A01 T10111056  RH  072%=      5-min Rain = 0
KWA1 120411Z 01017KT M01/M06 A3056 RMK A01 T10121057  RH  071%=      5-min Rain = 0
KWA1 120412Z 02018KT M01/M06 A3056 RMK A01 T10121058  RH  071%=      5-min Rain = 0
KWA1 120413Z 01018KT M01/M06 A3056 RMK A01 T10121060  RH  070%=      5-min Rain = 0
KWA1 120414Z 01015KT M01/M06 A3057 RMK A01 T10121059  RH  070%=      5-min Rain = 0
KWA1 120415Z 02013G18KT M01/M06 A3057 RMK A01 T10121056  RH  072%=      5-min Rain = 0
KWA1 120416Z 02017KT M01/M06 A3057 RMK A01 T10121057  RH  072%=      5-min Rain = 0
KWA1 120417Z 02017KT M01/M06 A3057 RMK A01 T10121062  RH  069%=      5-min Rain = 0
KWA1 120418Z 01019KT M01/M06 A3057 RMK A01 T10121061  RH  069%=      5-min Rain = 0
KWA1 120419Z 02019KT M01/M06 A3057 RMK A01 T10121062  RH  068%=      5-min Rain = 0
KWA1 120420Z 02016KT M01/M06 A3057 RMK A01 T10121063  RH  068%=      5-min Rain = 0
KWA1 120421Z 02017G22KT M01/M06 A3057 RMK A01 T10111062  RH  068%=      5-min Rain = 0
KWA1 120422Z 01021KT M01/M06 A3057 RMK A01 T10121062  RH  068%=      5-min Rain = 0
KWA1 120423Z 02022KT M01/M07 A3057 RMK A01 T10121066  RH  067%=      5-min Rain = 0
KWA1 120424Z 02023KT M01/M07 A3057 RMK A01 T10121068  RH  066%=      5-min Rain = 0
KWA1 120425Z 01020KT M01/M07 A3057 RMK A01 T10121067  RH  066%=      5-min Rain = 0
KWA1 120426Z 01018G23KT M01/M07 A3057 RMK A01 T10121065  RH  067%=      5-min Rain = 0
KWA1 120427Z 02020G27KT M01/M06 A3057 RMK A01 T10121064  RH  068%=      5-min Rain = 0
KWA1 120428Z 02020G26KT M01/M07 A3057 RMK A01 T10121065  RH  067%=      5-min Rain = 0
KWA1 120429Z 01019KT M01/M06 A3057 RMK A01 T10121064  RH  068%=      5-min Rain = 0
KWA1 120430Z 01019KT M01/M06 A3057 RMK A01 T10121063  RH  068%=      5-min Rain = 0
KWA1 120431Z 01018G24KT M01/M06 A3057 RMK A01 T10121063  RH  068%=      5-min Rain = 0
KWA1 120432Z 01019G25KT M01/M06 A3057 RMK A01 T10121064  RH  068%=      5-min Rain = 0
KWA1 120433Z 02016G21KT M01/M06 A3057 RMK A01 T10121063  RH  068%=      5-min Rain = 0
KWA1 120434Z 01019KT M01/M06 A3057 RMK A01 T10121062  RH  069%=      5-min Rain = 0
KWA1 120435Z 01019KT M01/M06 A3057 RMK A01 T10121063  RH  068%=      5-min Rain = 0
KWA1 120436Z 01018KT M01/M06 A3057 RMK A01 T10121063  RH  068%=      5-min Rain = 0
KWA1 120437Z 02018KT M01/M06 A3057 RMK A01 T10121062  RH  069%=      5-min Rain = 0
KWA1 120438Z 02016KT M01/M06 A3056 RMK A01 T10121062  RH  069%=      5-min Rain = 0
KWA1 120439Z 01019KT M01/M06 A3057 RMK A01 T10131062  RH  069%=      5-min Rain = 0
KWA1 120440Z 01015KT M01/M06 A3056 RMK A01 T10131063  RH  068%=      5-min Rain = 0
KWA1 120441Z 01021G28KT M01/M06 A3057 RMK A01 T10131061  RH  069%=      5-min Rain = 0
KWA1 120442Z 02021KT M01/M07 A3057 RMK A01 T10131066  RH  067%=      5-min Rain = 0
KWA1 120443Z 01017KT M01/M07 A3057 RMK A01 T10131067  RH  067%=      5-min Rain = 0
KWA1 120444Z 02018G24KT M01/M06 A3057 RMK A01 T10131063  RH  068%=      5-min Rain = 0
KWA1 120445Z 01020G25KT M01/M06 A3057 RMK A01 T10131064  RH  068%=      5-min Rain = 0
KWA1 120446Z 01018KT M01/M06 A3057 RMK A01 T10121064  RH  068%=      5-min Rain = 0
KWA1 120447Z 01017KT M01/M06 A3057 RMK A01 T10131063  RH  069%=      5-min Rain = 0
KWA1 120448Z 01016KT M01/M06 A3057 RMK A01 T10131061  RH  070%=      5-min Rain = 0
KWA1 120449Z 01020KT M01/M06 A3057 RMK A01 T10131062  RH  069%=      5-min Rain = 0
KWA1 120450Z 01021KT M01/M07 A3057 RMK A01 T10131065  RH  067%=      5-min Rain = 0
KWA1 120451Z 01020KT M01/M07 A3057 RMK A01 T10131067  RH  067%=      5-min Rain = 0
KWA1 120452Z 01018G23KT M01/M07 A3057 RMK A01 T10131066  RH  067%=      5-min Rain = 0
KWA1 120453Z 01019G24KT M01/M07 A3057 RMK A01 T10131066  RH  067%=      5-min Rain = 0
KWA1 120454Z 01017KT M01/M07 A3057 RMK A01 T10131066  RH  067%=      5-min Rain = 0
KWA1 120455Z 01018G23KT M01/M07 A3057 RMK A01 T10131065  RH  068%=      5-min Rain = 0
KWA1 120456Z 01020KT M01/M07 A3057 RMK A01 T10131065  RH  068%=      5-min Rain = 0
KWA1 120457Z 01019KT M01/M07 A3057 RMK A01 T10131066  RH  067%=      5-min Rain = 0
KWA1 120458Z 02019KT M01/M07 A3057 RMK A01 T10131067  RH  066%=      5-min Rain = 0
KWA1 120459Z 02018KT M01/M07 A3057 RMK A01 T10131067  RH  066%=      5-min Rain = 0
KWA1 120500Z 02019KT M01/M07 A3057 RMK A01 T10131066  RH  067%=      5-min Rain = 0
KWA1 120501Z 01015KT M01/M07 A3057 RMK A01 T10131066  RH  067%=      5-min Rain = 0
KWA1 120502Z 02018KT M01/M07 A3057 RMK A01 T10131065  RH  068%=      5-min Rain = 0
KWA1 120503Z 01018KT M01/M07 A3057 RMK A01 T10131066  RH  067%=      5-min Rain = 0
KWA1 120504Z 01015KT M01/M07 A3057 RMK A01 T10131066  RH  067%=      5-min Rain = 0
KWA1 120505Z 01017KT M01/M07 A3058 RMK A01 T10131066  RH  068%=      5-min Rain = 0
KWA1 120506Z 01015KT M01/M06 A3058 RMK A01 T10131064  RH  068%=      5-min Rain = 0
KWA1 120507Z 01014KT M01/M06 A3058 RMK A01 T10131064  RH  068%=      5-min Rain = 0
KWA1 120508Z 01013KT M01/M06 A3058 RMK A01 T10131063  RH  069%=      5-min Rain = 0
KWA1 120509Z 01015KT M01/M06 A3058 RMK A01 T10131062  RH  070%=      5-min Rain = 0
KWA1 120510Z 00016KT M01/M06 A3058 RMK A01 T10131064  RH  068%=      5-min Rain = 0
KWA1 120511Z 01014KT M01/M06 A3058 RMK A01 T10131064  RH  068%=      5-min Rain = 0
KWA1 120512Z 01018KT M01/M07 A3058 RMK A01 T10131065  RH  068%=      5-min Rain = 0
KWA1 120513Z 01017KT M01/M07 A3058 RMK A01 T10131067  RH  066%=      5-min Rain = 0
KWA1 120514Z 01014KT M01/M07 A3058 RMK A01 T10131066  RH  067%=      5-min Rain = 0
KWA1 120515Z 01020KT M01/M07 A3058 RMK A01 T10121065  RH  068%=      5-min Rain = 0
KWA1 120516Z 01020KT M01/M07 A3058 RMK A01 T10131069  RH  066%=      5-min Rain = 0
KWA1 120517Z 01018KT M01/M07 A3058 RMK A01 T10131070  RH  065%=      5-min Rain = 0
KWA1 120518Z 01017KT M01/M07 A3058 RMK A01 T10131069  RH  066%=      5-min Rain = 0
KWA1 120519Z 01014KT M01/M07 A3058 RMK A01 T10131066  RH  067%=      5-min Rain = 0
KWA1 120520Z 01017KT M01/M07 A3058 RMK A01 T10131065  RH  068%=      5-min Rain = 0
KWA1 120521Z 01015KT M01/M07 A3058 RMK A01 T10131067  RH  067%=      5-min Rain = 0
KWA1 120522Z 01015KT M01/M07 A3058 RMK A01 T10131065  RH  068%=      5-min Rain = 0
KWA1 120523Z 01015KT M01/M06 A3058 RMK A01 T10131064  RH  068%=      5-min Rain = 0
KWA1 120524Z 01013KT M01/M06 A3058 RMK A01 T10131063  RH  069%=      5-min Rain = 0
KWA1 120525Z 01015G20KT M01/M06 A3058 RMK A01 T10131063  RH  069%=      5-min Rain = 0
KWA1 120526Z 01017KT M01/M07 A3058 RMK A01 T10131067  RH  067%=      5-min Rain = 0
KWA1 120527Z 01014KT M01/M07 A3058 RMK A01 T10131067  RH  067%=      5-min Rain = 0
KWA1 120528Z 01016KT M01/M07 A3058 RMK A01 T10131067  RH  067%=      5-min Rain = 0
KWA1 120529Z 01015KT M01/M07 A3058 RMK A01 T10131068  RH  066%=      5-min Rain = 0
KWA1 120530Z 01015KT M01/M07 A3058 RMK A01 T10131065  RH  068%=      5-min Rain = 0
KWA1 120531Z 01014KT M01/M07 A3058 RMK A01 T10131065  RH  068%=      5-min Rain = 0
KWA1 120532Z 01014KT M01/M07 A3058 RMK A01 T10131065  RH  068%=      5-min Rain = 0
KWA1 120533Z 01013KT M01/M07 A3058 RMK A01 T10141066  RH  068%=      5-min Rain = 0
KWA1 120534Z 01015KT M01/M07 A3058 RMK A01 T10141065  RH  068%=      5-min Rain = 0
KWA1 120535Z 01013KT M01/M07 A3058 RMK A01 T10141066  RH  067%=      5-min Rain = 0
KWA1 120536Z 01014KT M01/M07 A3058 RMK A01 T10141066  RH  067%=      5-min Rain = 0
KWA1 120537Z 01016KT M01/M07 A3058 RMK A01 T10141067  RH  067%=      5-min Rain = 0
KWA1 120538Z 01017KT M01/M07 A3058 RMK A01 T10131069  RH  066%=      5-min Rain = 0
KWA1 120539Z 01018KT M01/M07 A3058 RMK A01 T10131070  RH  065%=      5-min Rain = 0
KWA1 120540Z 01019KT M01/M07 A3058 RMK A01 T10131072  RH  065%=      5-min Rain = 0
KWA1 120541Z 01019KT M01/M07 A3058 RMK A01 T10141073  RH  064%=      5-min Rain = 0
KWA1 120542Z 02017KT M01/M07 A3058 RMK A01 T10141072  RH  064%=      5-min Rain = 0
KWA1 120543Z 01018KT M01/M07 A3058 RMK A01 T10141072  RH  065%=      5-min Rain = 0
KWA1 120544Z 01017KT M01/M07 A3058 RMK A01 T10141072  RH  065%=      5-min Rain = 0
KWA1 120545Z 01015KT M01/M07 A3058 RMK A01 T10141070  RH  065%=      5-min Rain = 0
KWA1 120546Z 01015KT M01/M07 A3058 RMK A01 T10131068  RH  066%=      5-min Rain = 0
KWA1 120547Z 01015KT M01/M07 A3058 RMK A01 T10131066  RH  067%=      5-min Rain = 0
KWA1 120548Z 01016KT M01/M07 A3058 RMK A01 T10141068  RH  066%=      5-min Rain = 0
KWA1 120549Z 01016KT M01/M07 A3058 RMK A01 T10141069  RH  066%=      5-min Rain = 0
KWA1 120550Z 01014KT M01/M07 A3058 RMK A01 T10141068  RH  067%=      5-min Rain = 0
KWA1 120551Z 01015KT M01/M07 A3058 RMK A01 T10141066  RH  067%=      5-min Rain = 0
KWA1 120552Z 01015KT M01/M07 A3058 RMK A01 T10141067  RH  067%=      5-min Rain = 0
KWA1 120553Z 01016KT M01/M07 A3058 RMK A01 T10141068  RH  067%=      5-min Rain = 0
KWA1 120554Z 01013KT M01/M07 A3058 RMK A01 T10141067  RH  067%=      5-min Rain = 0
KWA1 120555Z 01015KT M01/M07 A3058 RMK A01 T10141066  RH  068%=      5-min Rain = 0
KWA1 120556Z 02014KT M01/M07 A3058 RMK A01 T10141068  RH  066%=      5-min Rain = 0
KWA1 120557Z 01016KT M01/M07 A3058 RMK A01 T10141069  RH  066%=      5-min Rain = 0
KWA1 120558Z 01015KT M01/M07 A3058 RMK A01 T10141068  RH  067%=      5-min Rain = 0
KWA1 120559Z 01015KT M01/M07 A3058 RMK A01 T10141067  RH  067%=      5-min Rain = 0

Page generated in 0.0828 seconds.